| Place | Name | Time | Raw score | Score |
|---|---|---|---|---|
| 1 | Seekr | 57.01 | 1,000 | 364 |
| 2 | Predatory_Balloon | 57.23 | 900 | 327 |
| 2 | Terrapin | 57.23 | 900 | 327 |
| 4 | -DarkLlama- | 57.29 | 827 | 301 |
| 4 | fentanyl lover <3 | 57.29 | 827 | 301 |
| 6 | Tribow | 57.87 | 777 | 282 |
| 7 | Jay2a | 57.96 | 756 | 275 |
| 8 | Waonder | 58.07 | 736 | 268 |
| 9 | Ferreus | 58.40 | 718 | 261 |
| 10 | Woody | 58.41 | 700 | 254 |
| 11 | Kinix | 58.71 | 684 | 249 |
| 12 | KnightBane | 58.75 | 669 | 243 |
| 13 | Mei Rummy-chan | 59.01 | 654 | 238 |
| 14 | Bridge | 59.02 | 640 | 233 |
| 15 | dannyburke03 | 59.11 | 626 | 228 |
| 16 | VladidolfPutler | 59.14 | 613 | 223 |
| 17 | XiQu3sT | 59.24 | 600 | 218 |
| 18 | concil | 59.25 | 588 | 214 |
| 19 | slug ʕ●.●ʔ | 59.40 | 576 | 209 |
| 20 | Nico | 59.55 | 565 | 205 |
| 20 | Conbron ^-^ | 59.55 | 565 | 205 |
| 22 | SlowScan | 59.57 | 542 | 197 |
| 23 | Kelgone | 59.61 | 531 | 193 |
| 24 | Nerf | 59.65 | 521 | 189 |
| 25 | The Blue Fox | 59.69 | 511 | 186 |
| 25 | Californ1a | 59.69 | 511 | 186 |
| 27 | jason | 59.83 | 491 | 179 |
| 27 | IllKIllU | 59.83 | 491 | 179 |
| 29 | NotAZombi3 | 59.89 | 471 | 171 |
| 30 | pigpenguin | 59.90 | 462 | 168 |
| 30 | Soraho | 59.90 | 462 | 168 |
| 32 | Winter's Crescendo | 59.93 | 444 | 161 |
| 33 | Backgrounds' | 59.95 | 435 | 158 |
| 34 | Void Concept | 59.96 | 426 | 155 |
| 35 | Erik | 59.99 | 417 | 152 |
| 36 | Draygone | 1:00.01 | 409 | 149 |
| 37 | Freud | 1:00.10 | 400 | 145 |
| 38 | Alopex | 1:00.18 | 392 | 143 |
| 39 | Long Rice | 1:00.21 | 384 | 140 |
| 40 | Hayden | 1:00.27 | 376 | 137 |
| 41 | Sidewinder Fang | 1:00.29 | 368 | 134 |
| 42 | GaMiiX46 | 1:00.31 | 360 | 131 |
| 43 | Riskey | 1:00.34 | 352 | 128 |
| 44 | Haunted Pleb | 1:00.44 | 345 | 125 |
| 45 | Siyzerix | 1:00.47 | 337 | 123 |
| 46 | Zany | 1:00.57 | 330 | 120 |
| 47 | fr4nk | 1:00.58 | 322 | 117 |
| 48 | cerberus❤ | 1:00.63 | 315 | 115 |
| 48 | The Dank Magician | 1:00.63 | 315 | 115 |
| 50 | Pelerin | 1:00.64 | 300 | 109 |
| 51 | CactusJack | 1:00.65 | 293 | 107 |
| 52 | burger | 1:00.67 | 286 | 104 |
| 53 | Tendrael Umbra | 1:00.74 | 279 | 101 |
| 54 | DefenderOfHyrule | 1:00.83 | 272 | 99 |
| 55 | XLgeneral | 1:00.88 | 266 | 97 |
| 55 | Aiko | 1:00.88 | 266 | 97 |
| 57 | lift your tail for me | 1:00.91 | 252 | 92 |
| 58 | Shifty | 1:00.99 | 246 | 89 |
| 58 | FluffyTheZombii | 1:00.99 | 246 | 89 |
| 60 | infomercial | 1:01.00 | 232 | 84 |
| 61 | GTNeon | 1:01.02 | 226 | 82 |
| 62 | Vynll | 1:01.09 | 219 | 80 |
| 63 | notguts | 1:01.18 | 213 | 77 |
| 64 | Jcav | 1:01.19 | 207 | 75 |
| 65 | CodedCrow | 1:01.20 | 200 | 73 |
| 66 | Defect | 1:01.25 | 194 | 71 |
| 67 | PineFreshGuy | 1:01.32 | 188 | 68 |
| 68 | Ugly Bastard | 1:01.33 | 182 | 66 |
| 69 | Overlord | 1:01.43 | 176 | 64 |
| 69 | levinv270 | 1:01.43 | 176 | 64 |
| 71 | DANTE_101 | 1:01.45 | 164 | 60 |
| 72 | Nacrova | 1:01.47 | 158 | 57 |
| 73 | ReallyDumbFox | 1:01.56 | 152 | 55 |
| 74 | tveh | 1:01.60 | 146 | 53 |
| 75 | Y2Kafka | 1:01.63 | 140 | 51 |
| 76 | bacon | 1:01.85 | 134 | 49 |
| 77 | Acias | 1:01.93 | 129 | 47 |
| 78 | Red Hood | 1:01.94 | 123 | 45 |
| 79 | gingerette95 | 1:02.03 | 117 | 43 |
| 80 | TSTONE | 1:02.04 | 112 | 41 |
| 81 | lead drinkers united | 1:02.07 | 106 | 39 |
| 82 | BlacKat | 1:02.09 | 100 | 36 |
| 83 | Weird Pumpkin | 1:02.13 | 95 | 35 |
| 84 | [deleted] | 1:02.21 | 89 | 32 |
| 85 | Lupeling | 1:02.24 | 84 | 31 |
| 85 | Dreigo | 1:02.24 | 84 | 31 |
| 87 | RaiderZulu | 1:02.30 | 73 | 27 |
| 88 | feiluuyre | 1:02.31 | 68 | 25 |
| 89 | 2koiraa | 1:02.41 | 62 | 23 |
| 90 | Sunchipp Games | 1:02.43 | 57 | 21 |
| 91 | Zalderax | 1:02.54 | 52 | 19 |
| 92 | Eagl3 | 1:02.61 | 47 | 17 |
| 93 | Xeno146 | 1:02.63 | 41 | 15 |
| 94 | NicholasKB19 | 1:02.84 | 36 | 13 |
| 95 | speed | 1:02.88 | 31 | 11 |
| 96 | baakstaff | 1:02.89 | 26 | 9 |
| 97 | Orion | 1:02.91 | 21 | 8 |
| 98 | EteraKagekara | 1:03.01 | 16 | 6 |
| 99 | DethHoun | 1:03.11 | 11 | 4 |
| 100 | Shady Inktail | 1:03.15 | 6 | 2 |
| 101 | PinesOfChaos | 1:03.16 | 0 | 0 |
| 102 | MisterPionier | 1:03.20 | 0 | 0 |
| 103 | Go Fish | 1:03.23 | 0 | 0 |
| 104 | Meda | 1:03.29 | 0 | 0 |
| 105 | Charlotte | 1:03.39 | 0 | 0 |
| 106 | Bytesmee | 1:03.41 | 0 | 0 |
| 107 | Jam0344 | 1:03.48 | 0 | 0 |
| 108 | nickolaij | 1:03.74 | 0 | 0 |
| 109 | Nintony | 1:03.85 | 0 | 0 |
| 110 | shirui. | 1:03.97 | 0 | 0 |
| 111 | Toastmaster | 1:04.04 | 0 | 0 |
| 112 | Sind | 1:04.06 | 0 | 0 |
| 113 | delfiler | 1:04.07 | 0 | 0 |
| 114 | Skyrandia | 1:04.11 | 0 | 0 |
| 115 | Pixel_ | 1:04.17 | 0 | 0 |
| 116 | posture check | 1:04.18 | 0 | 0 |
| 117 | ant | 1:04.37 | 0 | 0 |
| 117 | sacrafish | 1:04.37 | 0 | 0 |
| 119 | Crimson Blood | 1:04.44 | 0 | 0 |
| 120 | DieselFace | 1:04.49 | 0 | 0 |
| 121 | DGJFTZ | 1:04.52 | 0 | 0 |
| 122 | AnalBreacher | 1:04.56 | 0 | 0 |
| 123 | Chase | 1:04.59 | 0 | 0 |
| 124 | BORGIR | 1:04.67 | 0 | 0 |
| 125 | MTM | 1:04.94 | 0 | 0 |
| 126 | Warriot | 1:05.18 | 0 | 0 |
| 127 | JayBoneJay | 1:05.43 | 0 | 0 |
| 128 | Jarek718 | 1:05.52 | 0 | 0 |
| 129 | Earthnuker | 1:05.54 | 0 | 0 |
| 130 | ShyGuyEkxim | 1:05.55 | 0 | 0 |
| 131 | ranger481 | 1:05.63 | 0 | 0 |
| 132 | DvN | 1:05.73 | 0 | 0 |
| 133 | HunterPlayz | 1:06.09 | 0 | 0 |
| 134 | Muggestutz | 1:06.15 | 0 | 0 |
| 135 | Pointed Mammal29 | 1:06.18 | 0 | 0 |
| 136 | Yarimi | 1:06.23 | 0 | 0 |
| 137 | Ryvoke | 1:06.33 | 0 | 0 |
| 138 | Athice | 1:06.43 | 0 | 0 |
| 139 | RL | 1:06.49 | 0 | 0 |
| 140 | Spaceburger | 1:06.78 | 0 | 0 |
| 141 | [MM] Vannevariable | 1:06.95 | 0 | 0 |
| 142 | Sayrix | 1:06.98 | 0 | 0 |
| 143 | JDthe3rd | 1:07.08 | 0 | 0 |
| 144 | i0nTempest | 1:07.09 | 0 | 0 |
| 145 | Camel | 1:07.20 | 0 | 0 |
| 146 | PaulyBoo | 1:07.22 | 0 | 0 |
| 147 | [deleted] | 1:07.27 | 0 | 0 |
| 148 | Latapi | 1:07.30 | 0 | 0 |
| 149 | Thermos | 1:07.32 | 0 | 0 |
| 150 | pager | 1:07.35 | 0 | 0 |
| 151 | DROCHEPOLK | 1:07.41 | 0 | 0 |
| 152 | Flaminglump | 1:07.56 | 0 | 0 |
| 153 | SunRed | 1:07.65 | 0 | 0 |
| 154 | Dusty | 1:07.73 | 0 | 0 |
| 155 | Host | 1:07.74 | 0 | 0 |
| 156 | M500 | 1:07.82 | 0 | 0 |
| 157 | Myogi Night | 1:07.94 | 0 | 0 |
| 158 | Ken | 1:07.96 | 0 | 0 |
| 159 | dinkleb3rg | 1:08.04 | 0 | 0 |
| 159 | Rombommind | 1:08.04 | 0 | 0 |
| 161 | garbile | 1:08.08 | 0 | 0 |
| 162 | TheEvilMidnightBomber | 1:08.13 | 0 | 0 |
| 163 | MatheMSI | 1:08.14 | 0 | 0 |
| 164 | baevery | 1:08.16 | 0 | 0 |
| 165 | muffins | 1:08.17 | 0 | 0 |
| 166 | paskautov | 1:08.24 | 0 | 0 |
| 167 | Dante | 1:08.25 | 0 | 0 |
| 168 | Michael_MaxPower | 1:08.26 | 0 | 0 |
| 169 | Ozymandias | 1:08.34 | 0 | 0 |
| 169 | Jarminx | 1:08.34 | 0 | 0 |
| 171 | SmolSucc | 1:08.39 | 0 | 0 |
| 172 | Frozen Dino | 1:08.41 | 0 | 0 |
| 172 | TheMelonGod | 1:08.41 | 0 | 0 |
| 172 | Minecraft-pro | 1:08.41 | 0 | 0 |
| 175 | Austint30 | 1:08.42 | 0 | 0 |
| 176 | effie 🌺 | 1:08.46 | 0 | 0 |
| 177 | Pristine | 1:08.48 | 0 | 0 |
| 178 | SX64 | 1:08.49 | 0 | 0 |
| 179 | SpitzohrSpeaher | 1:08.51 | 0 | 0 |
| 179 | Ktee | 1:08.51 | 0 | 0 |
| 181 | Cheeky Cage | 1:08.56 | 0 | 0 |
| 182 | < blank > | 1:08.59 | 0 | 0 |
| 183 | Azure | 1:08.66 | 0 | 0 |
| 184 | pcl219 | 1:08.68 | 0 | 0 |
| 184 | Гвоздь | 1:08.68 | 0 | 0 |
| 186 | Bloby | 1:08.70 | 0 | 0 |
| 186 | Birb | 1:08.70 | 0 | 0 |
| 186 | tigerchef123 | 1:08.70 | 0 | 0 |
| 189 | Ashton_bro | 1:08.71 | 0 | 0 |
| 190 | Diabetis4life | 1:08.72 | 0 | 0 |
| 191 | AAVolt | 1:08.80 | 0 | 0 |
| 192 | CeruleanAzura | 1:08.81 | 0 | 0 |
| 193 | Lliane | 1:08.88 | 0 | 0 |
| 193 | Truborcz | 1:08.88 | 0 | 0 |
| 195 | Revan5678 | 1:08.91 | 0 | 0 |
| 196 | itsukarine | 1:08.92 | 0 | 0 |
| 197 | Curious Fish | 1:08.93 | 0 | 0 |
| 198 | Gyodesis | 1:08.95 | 0 | 0 |
| 199 | Tydaxer | 1:08.97 | 0 | 0 |
| 200 | GeneralAce55 | 1:09.04 | 0 | 0 |
| 201 | RetaliationGuy YT | 1:09.08 | 0 | 0 |
| 202 | Kibōchen | 1:09.09 | 0 | 0 |
| 203 | Samn | 1:09.13 | 0 | 0 |
| 203 | Тайно дёргал | 1:09.13 | 0 | 0 |
| 205 | Paparazzi | 1:09.16 | 0 | 0 |
| 206 | Luminous | 1:09.17 | 0 | 0 |
| 207 | Idle Asides | 1:09.19 | 0 | 0 |
| 208 | Mr. Doggy | 1:09.22 | 0 | 0 |
| 208 | Qioury | 1:09.22 | 0 | 0 |
| 208 | Antoine | 1:09.22 | 0 | 0 |
| 211 | Skye | 1:09.23 | 0 | 0 |
| 212 | Sunnydan | 1:09.24 | 0 | 0 |
| 213 | No | 1:09.27 | 0 | 0 |
| 214 | EnderKill98 | 1:09.28 | 0 | 0 |
| 215 | The Unusual Suspect | 1:09.29 | 0 | 0 |
| 216 | Pseudobread | 1:09.30 | 0 | 0 |
| 217 | <color=#00b4e0>MySavingLight | 1:09.36 | 0 | 0 |
| 218 | WAKKACHUNG | 1:09.43 | 0 | 0 |
| 219 | igetking (iced blueberry) | 1:09.44 | 0 | 0 |
| 220 | stepil | 1:09.48 | 0 | 0 |
| 220 | 1MBStudios | 1:09.48 | 0 | 0 |
| 222 | Ryngak | 1:09.49 | 0 | 0 |
| 223 | CampingCarl | 1:09.50 | 0 | 0 |
| 224 | Mr.Damm | 1:09.53 | 0 | 0 |
| 225 | JacquetheRipper | 1:09.55 | 0 | 0 |
| 225 | toasT | 1:09.55 | 0 | 0 |
| 227 | far too many gecs | 1:09.58 | 0 | 0 |
| 227 | TajPilon | 1:09.58 | 0 | 0 |
| 229 | HyperNova | 1:09.59 | 0 | 0 |
| 229 | [BIT]IroncladWarbear | 1:09.59 | 0 | 0 |
| 229 | Sensokaku | 1:09.59 | 0 | 0 |
| 229 | J4sp3rr | 1:09.59 | 0 | 0 |
| 233 | SunlessSoph | 1:09.60 | 0 | 0 |
| 234 | enJohneering | 1:09.65 | 0 | 0 |
| 235 | Cody | 1:09.69 | 0 | 0 |
| 235 | Choco Purin | 1:09.69 | 0 | 0 |
| 237 | Stracciatella | 1:09.70 | 0 | 0 |
| 237 | Mar_Veloz | 1:09.70 | 0 | 0 |
| 239 | Conalji | 1:09.72 | 0 | 0 |
| 240 | Canine Dragon | 1:09.73 | 0 | 0 |
| 240 | ilikecorndogs | 1:09.73 | 0 | 0 |
| 242 | Ae1oURed | 1:09.74 | 0 | 0 |
| 243 | RobloxUwU | 1:09.79 | 0 | 0 |
| 244 | BumbleFunkMcGee | 1:09.85 | 0 | 0 |
| 245 | Skuzzles | 1:09.88 | 0 | 0 |
| 246 | Cyxxus | 1:09.91 | 0 | 0 |
| 247 | Joan6694 | 1:09.92 | 0 | 0 |
| 247 | cocob4 | 1:09.92 | 0 | 0 |
| 249 | MAT D.R.⎛⎝≥⏝⏝≤⎠⎞ | 1:09.94 | 0 | 0 |
| 250 | CoJo12 | 1:09.95 | 0 | 0 |
| 251 | Porcozo | 1:09.96 | 0 | 0 |
| 252 | PowaRanja | 1:09.97 | 0 | 0 |
| 252 | krizithy | 1:09.97 | 0 | 0 |
| 254 | SeRiOuS | 1:10.00 | 0 | 0 |
| 255 | Dimitri | 1:10.02 | 0 | 0 |
| 256 | Rrix | 1:10.04 | 0 | 0 |
| 256 | Jeebus | 1:10.04 | 0 | 0 |
| 258 | RichyDaReapa | 1:10.05 | 0 | 0 |
| 259 | 4onen | 1:10.09 | 0 | 0 |
| 260 | Timme701 | 1:10.16 | 0 | 0 |
| 261 | Corecii | 1:10.17 | 0 | 0 |
| 262 | Naoroji | 1:10.18 | 0 | 0 |
| 262 | ReadWriteError | 1:10.18 | 0 | 0 |
| 262 | Helsinki Farter | 1:10.18 | 0 | 0 |
| 265 | JaServus | 1:10.19 | 0 | 0 |
| 265 | Tuskenatra | 1:10.19 | 0 | 0 |
| 267 | Pink | 1:10.23 | 0 | 0 |
| 268 | G9 | 1:10.27 | 0 | 0 |
| 269 | Jack5 | 1:10.28 | 0 | 0 |
| 270 | Ca3sar | 1:10.31 | 0 | 0 |
| 271 | F4LLXEN. | 1:10.32 | 0 | 0 |
| 272 | 遠くの愛好家 | 1:10.33 | 0 | 0 |
| 273 | PuppySky | 1:10.34 | 0 | 0 |
| 273 | Hotride | 1:10.34 | 0 | 0 |
| 275 | Rayne Hellfire | 1:10.37 | 0 | 0 |
| 276 | baby cat nuri | 1:10.39 | 0 | 0 |
| 277 | EndlessGaming | 1:10.41 | 0 | 0 |
| 278 | A̶͓̓z̷͓̍ũ̴̩r̷͔͐e̴ | 1:10.42 | 0 | 0 |
| 279 | ZERO | 1:10.48 | 0 | 0 |
| 280 | Turnabout Grag | 1:10.49 | 0 | 0 |
| 281 | Epsilon_Knight | 1:10.50 | 0 | 0 |
| 282 | Lazarus | 1:10.53 | 0 | 0 |
| 283 | Razterk | 1:10.57 | 0 | 0 |
| 284 | Grabuge | 1:10.60 | 0 | 0 |
| 284 | Pepino | 1:10.60 | 0 | 0 |
| 286 | lucascool12 | 1:10.64 | 0 | 0 |
| 287 | Dislin | 1:10.66 | 0 | 0 |
| 287 | 100PercentMan | 1:10.66 | 0 | 0 |
| 289 | ✪ Frok ✪ | 1:10.67 | 0 | 0 |
| 290 | Abnormal Cybran | 1:10.69 | 0 | 0 |
| 291 | Ringo | 1:10.72 | 0 | 0 |
| 292 | Spacefarer | 1:10.73 | 0 | 0 |
| 292 | 2cvO79kr | 1:10.73 | 0 | 0 |
| 294 | Drac7584 | 1:10.77 | 0 | 0 |
| 295 | Breezy™ | 1:10.80 | 0 | 0 |
| 296 | Keegan | 1:10.84 | 0 | 0 |
| 297 | NeonChaosAwoo | 1:10.88 | 0 | 0 |
| 298 | Western Ice Noodle | 1:10.93 | 0 | 0 |
| 299 | Im Contributing | 1:10.95 | 0 | 0 |
| 300 | superchargedrc | 1:10.97 | 0 | 0 |
| 301 | Shaka | 1:11.00 | 0 | 0 |
| 301 | Mug | 1:11.00 | 0 | 0 |
| 301 | 阿哈由 | 1:11.00 | 0 | 0 |
| 304 | Bones | 1:11.02 | 0 | 0 |
| 305 | KABOOSE05 | 1:11.04 | 0 | 0 |
| 306 | FabioTheTurtle | 1:11.05 | 0 | 0 |
| 307 | Nainji | 1:11.15 | 0 | 0 |
| 308 | vl4duu | 1:11.16 | 0 | 0 |
| 308 | Soul_ReaperXIII | 1:11.16 | 0 | 0 |
| 310 | Metsakurat | 1:11.17 | 0 | 0 |
| 311 | Tidalwave97 | 1:11.19 | 0 | 0 |
| 312 | rotaryengine | 1:11.20 | 0 | 0 |
| 313 | Jazzafrazz | 1:11.22 | 0 | 0 |
| 314 | Skrigar | 1:11.24 | 0 | 0 |
| 315 | Mati9319 | 1:11.28 | 0 | 0 |
| 316 | KWP | 1:11.30 | 0 | 0 |
| 317 | tiramisu | 1:11.38 | 0 | 0 |
| 318 | Azure Zakura | 1:11.41 | 0 | 0 |
| 319 | PootisMayo | 1:11.42 | 0 | 0 |
| 320 | MomMilkin | 1:11.45 | 0 | 0 |
| 321 | GaiaGaiyus | 1:11.46 | 0 | 0 |
| 321 | khrisround2 | 1:11.46 | 0 | 0 |
| 321 | Renota | 1:11.46 | 0 | 0 |
| 321 | Acedia | 1:11.46 | 0 | 0 |
| 325 | bcat | 1:11.47 | 0 | 0 |
| 326 | T8Destroyer | 1:11.54 | 0 | 0 |
| 327 | shi+0rty | 1:11.56 | 0 | 0 |
| 328 | Max Tennyson | 1:11.57 | 0 | 0 |
| 329 | [NBD] PizzaHutDoxen | 1:11.59 | 0 | 0 |
| 330 | Anerix (Paradox) Cormin Quanadol | 1:11.60 | 0 | 0 |
| 331 | Reus | 1:11.62 | 0 | 0 |
| 331 | zombieassaultman | 1:11.62 | 0 | 0 |
| 331 | Onneyon | 1:11.62 | 0 | 0 |
| 334 | Sunflower | 1:11.65 | 0 | 0 |
| 335 | Crubo | 1:11.66 | 0 | 0 |
| 336 | Recared | 1:11.68 | 0 | 0 |
| 336 | Sayukki | 1:11.68 | 0 | 0 |
| 338 | Bijan | 1:11.73 | 0 | 0 |
| 338 | Delhjiko | 1:11.73 | 0 | 0 |
| 340 | Captain Uganda | 1:11.76 | 0 | 0 |
| 341 | Scariton | 1:11.79 | 0 | 0 |
| 342 | rbrules | 1:11.82 | 0 | 0 |
| 343 | rustihkov | 1:11.84 | 0 | 0 |
| 343 | Unknown Nomad | 1:11.84 | 0 | 0 |
| 345 | MyurrDurr | 1:11.93 | 0 | 0 |
| 346 | Joshy Grind | 1:12.03 | 0 | 0 |
| 347 | Spotfire | 1:12.04 | 0 | 0 |
| 348 | Ene | 1:12.05 | 0 | 0 |
| 349 | BulletRain23 | 1:12.07 | 0 | 0 |
| 350 | trinndade64 | 1:12.15 | 0 | 0 |
| 351 | Sample Text | 1:12.16 | 0 | 0 |
| 352 | Potted Mushroom | 1:12.21 | 0 | 0 |
| 353 | Maxter Max | 1:12.25 | 0 | 0 |
| 353 | Vencer_FRC | 1:12.25 | 0 | 0 |
| 355 | Wulg | 1:12.39 | 0 | 0 |
| 355 | McFolt | 1:12.39 | 0 | 0 |
| 357 | markschuurman1990 | 1:12.40 | 0 | 0 |
| 358 | Rudik | 1:12.45 | 0 | 0 |
| 359 | markus378 | 1:12.52 | 0 | 0 |
| 360 | Gnose | 1:12.56 | 0 | 0 |
| 361 | James "Papa Het" Hetfield | 1:12.59 | 0 | 0 |
| 362 | Crazyos | 1:12.63 | 0 | 0 |
| 363 | kriz_chan | 1:12.64 | 0 | 0 |
| 364 | RedΛngel | 1:12.66 | 0 | 0 |
| 365 | TheEPROM9 LaTeX | 1:12.68 | 0 | 0 |
| 366 | 1:12.70 | 0 | 0 | |
| 367 | Send help | 1:12.73 | 0 | 0 |
| 368 | Entropy can't catch me. | 1:12.81 | 0 | 0 |
| 369 | Blue Comet | 1:12.82 | 0 | 0 |
| 370 | [deleted] | 1:12.84 | 0 | 0 |
| 371 | Shadow34 | 1:12.85 | 0 | 0 |
| 372 | Zerdath | 1:12.86 | 0 | 0 |
| 372 | Idranoid | 1:12.86 | 0 | 0 |
| 374 | nuts | 1:12.90 | 0 | 0 |
| 375 | s00 | 1:12.93 | 0 | 0 |
| 376 | Adm | 1:12.95 | 0 | 0 |
| 377 | ToyoColla | 1:12.96 | 0 | 0 |
| 378 | BYTC | 1:12.97 | 0 | 0 |
| 379 | Apocalyptic Bunny | 1:13.02 | 0 | 0 |
| 380 | Slooty | 1:13.03 | 0 | 0 |
| 381 | TwistedChaos93 | 1:13.05 | 0 | 0 |
| 382 | PathToV1ctory | 1:13.06 | 0 | 0 |
| 383 | Flightfather | 1:13.11 | 0 | 0 |
| 384 | LittleKittyArtemis | 1:13.12 | 0 | 0 |
| 385 | Anvilanche | 1:13.18 | 0 | 0 |
| 386 | jmdajm7 | 1:13.29 | 0 | 0 |
| 386 | supersmily5 | 1:13.29 | 0 | 0 |
| 388 | sWilder9 | 1:13.31 | 0 | 0 |
| 389 | WTPuck | 1:13.35 | 0 | 0 |
| 390 | Soulhunter706 | 1:13.36 | 0 | 0 |
| 391 | Tem | 1:13.39 | 0 | 0 |
| 392 | SW18 | 1:13.40 | 0 | 0 |
| 392 | Spearmint | 1:13.40 | 0 | 0 |
| 394 | Renault Modus phase 2 | 1:13.41 | 0 | 0 |
| 395 | Cptnbean | 1:13.43 | 0 | 0 |
| 396 | Alexa, analise a resenha | 1:13.45 | 0 | 0 |
| 397 | Birb | 1:13.46 | 0 | 0 |
| 398 | gusforester | 1:13.49 | 0 | 0 |
| 398 | 25 минут кайфа | 1:13.49 | 0 | 0 |
| 400 | dude55man | 1:13.51 | 0 | 0 |
| 401 | DobreBobre | 1:13.58 | 0 | 0 |
| 402 | EndskendV | 1:13.67 | 0 | 0 |
| 403 | flaniert gerne | 1:13.72 | 0 | 0 |
| 404 | Art Vandelay | 1:13.74 | 0 | 0 |
| 405 | Sword&Leaf | 1:13.77 | 0 | 0 |
| 406 | Galaxtrix | 1:13.78 | 0 | 0 |
| 407 | S.Kappelmann | 1:13.81 | 0 | 0 |
| 408 | Misaki <3 | 1:13.82 | 0 | 0 |
| 409 | Bistdocs | 1:13.83 | 0 | 0 |
| 410 | SpongeJosh | 1:13.85 | 0 | 0 |
| 410 | Sev | 1:13.85 | 0 | 0 |
| 412 | VI_fizz | 1:13.87 | 0 | 0 |
| 413 | timberhog | 1:13.90 | 0 | 0 |
| 414 | Kerusos | 1:13.92 | 0 | 0 |
| 415 | cola98765 | 1:13.93 | 0 | 0 |
| 416 | Norz-Öril'Kern | 1:13.95 | 0 | 0 |
| 417 | The K-man | 1:13.99 | 0 | 0 |
| 417 | Arthur | 1:13.99 | 0 | 0 |
| 419 | MyzEffect | 1:14.00 | 0 | 0 |
| 420 | Ŵøłf | 1:14.01 | 0 | 0 |
| 421 | Alex | 1:14.03 | 0 | 0 |
| 422 | Red | 1:14.06 | 0 | 0 |
| 423 | Nisesh | 1:14.07 | 0 | 0 |
| 424 | 2Infinity&Evil | 1:14.08 | 0 | 0 |
| 425 | Sugoi-desu (⊙‿⊙✿) | 1:14.09 | 0 | 0 |
| 426 | Domino | 1:14.15 | 0 | 0 |
| 427 | Unlight369 | 1:14.16 | 0 | 0 |
| 427 | Blushy Wushy | 1:14.16 | 0 | 0 |
| 429 | ethansight | 1:14.17 | 0 | 0 |
| 430 | fischpferd | 1:14.23 | 0 | 0 |
| 430 | ash | 1:14.23 | 0 | 0 |
| 432 | SirWanksalot | 1:14.24 | 0 | 0 |
| 433 | Das_Toda | 1:14.34 | 0 | 0 |
| 434 | MoistMarshmellow | 1:14.37 | 0 | 0 |
| 434 | Шоколадка:) | 1:14.37 | 0 | 0 |
| 436 | Super_Shadow57 | 1:14.43 | 0 | 0 |
| 437 | Greenfire DX | 1:14.48 | 0 | 0 |
| 438 | NIRV007 | 1:14.49 | 0 | 0 |
| 439 | Twinbee | 1:14.54 | 0 | 0 |
| 439 | Dekkosun™ | 1:14.54 | 0 | 0 |
| 441 | Peter Parkour | 1:14.56 | 0 | 0 |
| 442 | SSBluey | 1:14.58 | 0 | 0 |
| 443 | RagingPoet | 1:14.62 | 0 | 0 |
| 444 | Viridus | 1:14.64 | 0 | 0 |
| 445 | lefor0416 | 1:14.71 | 0 | 0 |
| 446 | replikaeyes | 1:14.80 | 0 | 0 |
| 447 | SG-58 | 1:14.81 | 0 | 0 |
| 448 | VectorBot | 1:14.83 | 0 | 0 |
| 448 | Squishy | 1:14.83 | 0 | 0 |
| 450 | 4ever-.(Player)+*m*+ | 1:14.84 | 0 | 0 |
| 450 | Sokkero | 1:14.84 | 0 | 0 |
| 452 | yozpoz | 1:14.85 | 0 | 0 |
| 453 | Wolf Black | 1:14.86 | 0 | 0 |
| 454 | cyace | 1:14.89 | 0 | 0 |
| 454 | MilanoPilot88 | 1:14.89 | 0 | 0 |
| 456 | Meisolus | 1:14.91 | 0 | 0 |
| 457 | Pryn | 1:14.92 | 0 | 0 |
| 458 | Dany | 1:14.93 | 0 | 0 |
| 458 | Indecisive | 1:14.93 | 0 | 0 |
| 460 | Lol Bengals | 1:14.95 | 0 | 0 |
| 461 | A Moldy Orange | 1:14.96 | 0 | 0 |
| 462 | Blahaj Blast | 1:14.97 | 0 | 0 |
| 462 | skuzzzy | 1:14.97 | 0 | 0 |
| 464 | menkaru | 1:14.98 | 0 | 0 |
| 465 | Taelu | 1:15.00 | 0 | 0 |
| 466 | Topaz95 | 1:15.02 | 0 | 0 |
| 466 | Tilin | 1:15.02 | 0 | 0 |
| 468 | JulLeBarge | 1:15.04 | 0 | 0 |
| 469 | rosiebranch | 1:15.06 | 0 | 0 |
| 470 | Blue | 1:15.11 | 0 | 0 |
| 471 | Pamasich | 1:15.15 | 0 | 0 |
| 472 | Ninja Potato | 1:15.16 | 0 | 0 |
| 473 | BlackOnyx262 | 1:15.24 | 0 | 0 |
| 474 | Lightshift | 1:15.28 | 0 | 0 |
| 474 | MTQ Melnyx | 1:15.28 | 0 | 0 |
| 474 | Rip | 1:15.28 | 0 | 0 |
| 477 | DimitriOS | 1:15.33 | 0 | 0 |
| 478 | Virus Dragovar | 1:15.35 | 0 | 0 |
| 479 | DeerTrivia | 1:15.39 | 0 | 0 |
| 479 | Saujii2 | 1:15.39 | 0 | 0 |
| 481 | meziter260 | 1:15.41 | 0 | 0 |
| 482 | Artifact | 1:15.45 | 0 | 0 |
| 483 | CaYo | 1:15.47 | 0 | 0 |
| 484 | Kodikuu | 1:15.51 | 0 | 0 |
| 484 | EzraW118 | 1:15.51 | 0 | 0 |
| 484 | thunderella | 1:15.51 | 0 | 0 |
| 487 | Boomslang | 1:15.52 | 0 | 0 |
| 488 | Tones_8888 | 1:15.53 | 0 | 0 |
| 488 | Sir Johan | 1:15.53 | 0 | 0 |
| 490 | Pexillien | 1:15.56 | 0 | 0 |
| 491 | SSShady | 1:15.57 | 0 | 0 |
| 492 | Trishphyre Paradox Developer | 1:15.64 | 0 | 0 |
| 493 | EleventyB | 1:15.65 | 0 | 0 |
| 494 | [XIX] Doc_Gibbs Facility Janitor | 1:15.68 | 0 | 0 |
| 495 | RaPtOr987656789 | 1:15.69 | 0 | 0 |
| 496 | The 2000 Minnesota Vikings | 1:15.71 | 0 | 0 |
| 497 | Bad Rando | 1:15.73 | 0 | 0 |
| 498 | Agent-Cryspy | 1:15.75 | 0 | 0 |
| 498 | nobler40 | 1:15.75 | 0 | 0 |
| 500 | Žydras | 1:15.76 | 0 | 0 |
| 501 | PirateibmoZ | 1:15.79 | 0 | 0 |
| 502 | CuddleStrike | 1:15.83 | 0 | 0 |
| 503 | Witek | 1:15.84 | 0 | 0 |
| 504 | snugglebottom | 1:15.86 | 0 | 0 |
| 505 | kivito | 1:15.99 | 0 | 0 |
| 506 | Grammynumnums | 1:16.03 | 0 | 0 |
| 506 | SecretAgentKiiN 特务健 | 1:16.03 | 0 | 0 |
| 508 | FLUFYbluBUNYman | 1:16.04 | 0 | 0 |
| 509 | Don | 1:16.13 | 0 | 0 |
| 510 | MP X10L | 1:16.17 | 0 | 0 |
| 511 | Crysest | 1:16.20 | 0 | 0 |
| 512 | [RIOT]ThePlatinTiger | 1:16.21 | 0 | 0 |
| 512 | BrandonK-TN | 1:16.21 | 0 | 0 |
| 514 | Redyoshi900 | 1:16.23 | 0 | 0 |
| 515 | DJ McBirde | 1:16.26 | 0 | 0 |
| 516 | Ironside451 | 1:16.29 | 0 | 0 |
| 516 | Verdor | 1:16.29 | 0 | 0 |
| 516 | MarsDevastater | 1:16.29 | 0 | 0 |
| 519 | Prof. Pinwheel | 1:16.30 | 0 | 0 |
| 519 | Alrunes | 1:16.30 | 0 | 0 |
| 519 | Moonie | 1:16.30 | 0 | 0 |
| 522 | Cookie Dealer | 1:16.31 | 0 | 0 |
| 523 | Holo | 1:16.37 | 0 | 0 |
| 524 | the Bear of the Web | 1:16.43 | 0 | 0 |
| 525 | Sandi_Witch | 1:16.48 | 0 | 0 |
| 526 | Lux | 1:16.49 | 0 | 0 |
| 527 | Mr. Bird | 1:16.51 | 0 | 0 |
| 528 | Cooler Mensch | 1:16.54 | 0 | 0 |
| 529 | Battlebros1 | 1:16.58 | 0 | 0 |
| 530 | Alpha Beta Squid | 1:16.59 | 0 | 0 |
| 531 | Valankor | 1:16.62 | 0 | 0 |
| 532 | ^1WᴀʀᴘWɪʀᴇ | 1:16.63 | 0 | 0 |
| 533 | Seshiruseth | 1:16.67 | 0 | 0 |
| 534 | Greenghost | 1:16.69 | 0 | 0 |
| 535 | HISKI LP | 1:16.70 | 0 | 0 |
| 536 | GetEmOtterHere | 1:16.72 | 0 | 0 |
| 537 | [deleted] | 1:16.73 | 0 | 0 |
| 538 | SmokeScreen99 | 1:16.79 | 0 | 0 |
| 539 | Player145 | 1:16.81 | 0 | 0 |
| 540 | DrPiggler | 1:16.84 | 0 | 0 |
| 541 | Crespojazzman | 1:16.86 | 0 | 0 |
| 542 | N U P U | 1:16.88 | 0 | 0 |
| 543 | Jimmy Gibbs | 1:16.89 | 0 | 0 |
| 544 | GlacialRoses | 1:16.92 | 0 | 0 |
| 544 | Rainy (^_^*) | 1:16.92 | 0 | 0 |
| 546 | NoBody | 1:16.96 | 0 | 0 |
| 547 | Seinah | 1:16.98 | 0 | 0 |
| 547 | Shnurbs | 1:16.98 | 0 | 0 |
| 549 | Natalia1 | 1:17.01 | 0 | 0 |
| 550 | Nickel | 1:17.09 | 0 | 0 |
| 551 | GOOSE SATAN! | 1:17.10 | 0 | 0 |
| 552 | MeshuggaH | 1:17.12 | 0 | 0 |
| 553 | JeffTheBruh | 1:17.17 | 0 | 0 |
| 554 | Enzyme Machine | 1:17.21 | 0 | 0 |
| 555 | PappaJohn'sOfficial | 1:17.24 | 0 | 0 |
| 556 | 321longshot | 1:17.25 | 0 | 0 |
| 557 | Cheapo | 1:17.26 | 0 | 0 |
| 557 | Dracheron | 1:17.26 | 0 | 0 |
| 559 | Gomorrha | 1:17.27 | 0 | 0 |
| 560 | desc | 1:17.29 | 0 | 0 |
| 561 | Cerberus DCXVI | 1:17.30 | 0 | 0 |
| 562 | Nitroshoes | 1:17.31 | 0 | 0 |
| 562 | a beaver | 1:17.31 | 0 | 0 |
| 562 | Archi | 1:17.31 | 0 | 0 |
| 565 | Polygonalfish | 1:17.43 | 0 | 0 |
| 566 | Bundao da 2B Explode de Gostoso | 1:17.45 | 0 | 0 |
| 566 | mclnb | 1:17.45 | 0 | 0 |
| 568 | Hars | 1:17.51 | 0 | 0 |
| 569 | Akapaya | 1:17.52 | 0 | 0 |
| 570 | Simon Evo | 1:17.53 | 0 | 0 |
| 571 | racercowboy | 1:17.58 | 0 | 0 |
| 572 | doomsday device | 1:17.59 | 0 | 0 |
| 573 | The Enthusiaist | 1:17.62 | 0 | 0 |
| 574 | Leon | 1:17.64 | 0 | 0 |
| 575 | Grimhelm Thunderblood | 1:17.65 | 0 | 0 |
| 576 | frankzirk | 1:17.73 | 0 | 0 |
| 577 | blackmaester | 1:17.76 | 0 | 0 |
| 578 | Jester Thomas | 1:17.78 | 0 | 0 |
| 579 | Seere | 1:17.79 | 0 | 0 |
| 580 | Dragnar The Meme God | 1:17.80 | 0 | 0 |
| 581 | Archelon | 1:17.83 | 0 | 0 |
| 582 | Treme | 1:17.84 | 0 | 0 |
| 582 | Sr. Galán | 1:17.84 | 0 | 0 |
| 582 | Ruina Last | 1:17.84 | 0 | 0 |
| 585 | Monark10 | 1:17.85 | 0 | 0 |
| 586 | Mistress Spitfire | 1:17.90 | 0 | 0 |
| 587 | Underliinez | 1:17.91 | 0 | 0 |
| 588 | BedrokiV | 1:17.96 | 0 | 0 |
| 588 | Jeats | 1:17.96 | 0 | 0 |
| 590 | SIGSTACKFAULT | 1:17.97 | 0 | 0 |
| 590 | TheFluffyDragon/JBSTheGamer | 1:17.97 | 0 | 0 |
| 592 | Cos | 1:17.99 | 0 | 0 |
| 593 | Greeny^ | 1:18.02 | 0 | 0 |
| 594 | Shroom | 1:18.05 | 0 | 0 |
| 595 | olivqe | 1:18.07 | 0 | 0 |
| 596 | Iggulden | 1:18.17 | 0 | 0 |
| 597 | Nuggetzrago | 1:18.18 | 0 | 0 |
| 598 | Razor_ZXM | 1:18.21 | 0 | 0 |
| 599 | ✱ Ale | 1:18.24 | 0 | 0 |
| 600 | TheDukeOfTaco | 1:18.26 | 0 | 0 |
| 600 | maple | 1:18.26 | 0 | 0 |
| 602 | Skeel | 1:18.32 | 0 | 0 |
| 603 | Bun Bun | 1:18.35 | 0 | 0 |
| 604 | Tanuki | 1:18.37 | 0 | 0 |
| 605 | jay_ | 1:18.45 | 0 | 0 |
| 606 | camoextreme14 | 1:18.46 | 0 | 0 |
| 607 | IanRosk | 1:18.51 | 0 | 0 |
| 608 | ( 3 ) | 1:18.55 | 0 | 0 |
| 609 | KaMozo25 | 1:18.58 | 0 | 0 |
| 610 | KaijuBBQ | 1:18.63 | 0 | 0 |
| 611 | Navillus64 | 1:18.65 | 0 | 0 |
| 612 | NotANub | 1:18.71 | 0 | 0 |
| 613 | Intellibastard | 1:18.75 | 0 | 0 |
| 614 | Ramalis | 1:18.76 | 0 | 0 |
| 615 | science_team.png | 1:18.77 | 0 | 0 |
| 615 | fearxster | 1:18.77 | 0 | 0 |
| 615 | lenstevie | 1:18.77 | 0 | 0 |
| 618 | MrXano | 1:18.78 | 0 | 0 |
| 619 | Hentai Boy | 1:18.80 | 0 | 0 |
| 620 | Forge | 1:18.83 | 0 | 0 |
| 621 | Dyltra | 1:18.86 | 0 | 0 |
| 622 | DPftw | 1:18.87 | 0 | 0 |
| 623 | Kalimbato | 1:18.92 | 0 | 0 |
| 624 | The Biggest [REDACTED] Ogre | 1:18.94 | 0 | 0 |
| 625 | Hijacker02 | 1:18.96 | 0 | 0 |
| 626 | Plasmawario | 1:18.99 | 0 | 0 |
| 627 | Contekka | 1:19.00 | 0 | 0 |
| 628 | Helios | 1:19.04 | 0 | 0 |
| 629 | Alamoniy | 1:19.05 | 0 | 0 |
| 630 | i cant find any more bugs:((( | 1:19.10 | 0 | 0 |
| 630 | Typhon | 1:19.10 | 0 | 0 |
| 632 | Chiefy Eify | 1:19.16 | 0 | 0 |
| 633 | Expired | 1:19.21 | 0 | 0 |
| 634 | Iris | 1:19.24 | 0 | 0 |
| 635 | Taro | 1:19.27 | 0 | 0 |
| 635 | NyctoGT | 1:19.27 | 0 | 0 |
| 637 | Don Keyote | 1:19.31 | 0 | 0 |
| 637 | Alei Mahadei | 1:19.31 | 0 | 0 |
| 639 | Ndjek | 1:19.32 | 0 | 0 |
| 640 | Snakefalls | 1:19.39 | 0 | 0 |
| 640 | danny1234331 | 1:19.39 | 0 | 0 |
| 642 | Blu3 | 1:19.40 | 0 | 0 |
| 643 | CouchyMuffin | 1:19.42 | 0 | 0 |
| 644 | Shyylock | 1:19.47 | 0 | 0 |
| 645 | Aldebaran | 1:19.50 | 0 | 0 |
| 645 | garg | 1:19.50 | 0 | 0 |
| 647 | YoungBullZ28 | 1:19.51 | 0 | 0 |
| 647 | Uria | 1:19.51 | 0 | 0 |
| 647 | fooffie | 1:19.51 | 0 | 0 |
| 650 | Diegovb.cl | 1:19.53 | 0 | 0 |
| 650 | ShotgunSalad | 1:19.53 | 0 | 0 |
| 652 | Tagger24 ☯ | 1:19.55 | 0 | 0 |
| 653 | PleaseNoMore | 1:19.57 | 0 | 0 |
| 654 | AlveKatt | 1:19.61 | 0 | 0 |
| 655 | mark-henry | 1:19.65 | 0 | 0 |
| 656 | FOG BLAST THE VENT CORE | 1:19.66 | 0 | 0 |
| 657 | Enso | 1:19.68 | 0 | 0 |
| 657 | Ruleworld | 1:19.68 | 0 | 0 |
| 657 | "Lhama" | 1:19.68 | 0 | 0 |
| 660 | Kenaz | 1:19.69 | 0 | 0 |
| 661 | LOLO FAK | 1:19.70 | 0 | 0 |
| 662 | littlebutts | 1:19.71 | 0 | 0 |
| 663 | Ejotapg | 1:19.78 | 0 | 0 |
| 663 | Quendomax | 1:19.78 | 0 | 0 |
| 665 | Derdoron | 1:19.86 | 0 | 0 |
| 666 | Sir Cool One | 1:19.87 | 0 | 0 |
| 667 | CheeseWithHoles | 1:19.89 | 0 | 0 |
| 668 | WorkingChickenMH | 1:19.90 | 0 | 0 |
| 669 | TinFoilMkIV | 1:19.91 | 0 | 0 |
| 670 | Shadiest | 1:19.96 | 0 | 0 |
| 671 | Rhetorical Question | 1:19.97 | 0 | 0 |
| 672 | cammyhammyha | 1:20.11 | 0 | 0 |
| 672 | Battle Banana Chris Handsom | 1:20.11 | 0 | 0 |
| 672 | The Good Gaming Dragon | 1:20.11 | 0 | 0 |
| 675 | [NR] Miyu012 | 1:20.14 | 0 | 0 |
| 676 | UwU | 1:20.15 | 0 | 0 |
| 677 | Edragon13 | 1:20.18 | 0 | 0 |
| 678 | Xiotis | 1:20.20 | 0 | 0 |
| 679 | [REDACTED] | 1:20.21 | 0 | 0 |
| 680 | Pompous Whale | 1:20.22 | 0 | 0 |
| 681 | Slayer | 1:20.23 | 0 | 0 |
| 681 | Cod Peterson | 1:20.23 | 0 | 0 |
| 683 | SuperCrunch | 1:20.25 | 0 | 0 |
| 684 | Tenth | 1:20.27 | 0 | 0 |
| 685 | Henni | 1:20.32 | 0 | 0 |
| 686 | rocmanx654 | 1:20.33 | 0 | 0 |
| 687 | Glizzy Gobbler | 1:20.35 | 0 | 0 |
| 688 | DriveOffTheCliff | 1:20.36 | 0 | 0 |
| 689 | Lightstorm95 | 1:20.39 | 0 | 0 |
| 690 | Ayre | 1:20.41 | 0 | 0 |
| 690 | AK Tankmaster | 1:20.41 | 0 | 0 |
| 692 | [deleted] | 1:20.48 | 0 | 0 |
| 693 | . | 1:20.49 | 0 | 0 |
| 694 | LV. 100 Mafia Boss | 1:20.50 | 0 | 0 |
| 695 | Aureliayk | 1:20.51 | 0 | 0 |
| 696 | Raynland McNuggets | 1:20.55 | 0 | 0 |
| 697 | TaoSen | 1:20.56 | 0 | 0 |
| 698 | Vinnie Scumbolli | 1:20.57 | 0 | 0 |
| 699 | Rodd Raxter | 1:20.59 | 0 | 0 |
| 700 | Amored Dragon | 1:20.61 | 0 | 0 |
| 701 | Mr.tomate :D | 1:20.70 | 0 | 0 |
| 702 | noodle | 1:20.71 | 0 | 0 |
| 703 | ItsMarcus | 1:20.81 | 0 | 0 |
| 703 | warmainiac | 1:20.81 | 0 | 0 |
| 705 | Machine Entity | 1:20.90 | 0 | 0 |
| 705 | TantasStarke | 1:20.90 | 0 | 0 |
| 705 | sizifov | 1:20.90 | 0 | 0 |
| 708 | Spur | 1:20.92 | 0 | 0 |
| 709 | cheif22 | 1:20.96 | 0 | 0 |
| 710 | King of Kino | 1:21.00 | 0 | 0 |
| 711 | BuzZoiD | 1:21.03 | 0 | 0 |
| 712 | Snerlop | 1:21.04 | 0 | 0 |
| 713 | Dracon von Elyssia | 1:21.07 | 0 | 0 |
| 714 | [SUSPENDED] Marre | 1:21.10 | 0 | 0 |
| 715 | jonathan testicle | 1:21.11 | 0 | 0 |
| 716 | WillyBoy | 1:21.21 | 0 | 0 |
| 717 | 『QPUNeptune』 | 1:21.27 | 0 | 0 |
| 718 | timawesomeness | 1:21.28 | 0 | 0 |
| 719 | Hawaiano | 1:21.31 | 0 | 0 |
| 720 | BennLivid | 1:21.32 | 0 | 0 |
| 721 | Nexhin | 1:21.35 | 0 | 0 |
| 722 | Emerald_Pick | 1:21.36 | 0 | 0 |
| 723 | Azem_of_Earth | 1:21.42 | 0 | 0 |
| 724 | Bdub 𒉭 240km/h PEEK | 1:21.44 | 0 | 0 |
| 725 | femptocrisis | 1:21.45 | 0 | 0 |
| 726 | Zodiac | 1:21.46 | 0 | 0 |
| 727 | The Old GameR | 1:21.56 | 0 | 0 |
| 728 | Uganda Knuckles | 1:21.63 | 0 | 0 |
| 729 | Wik | 1:21.64 | 0 | 0 |
| 730 | RenTide4 | 1:21.69 | 0 | 0 |
| 731 | Khailz | 1:21.70 | 0 | 0 |
| 732 | HUSTLER | 1:21.71 | 0 | 0 |
| 733 | M.C. Splashdown | 1:21.73 | 0 | 0 |
| 734 | BluntButters | 1:21.77 | 0 | 0 |
| 735 | Sxolian | 1:21.78 | 0 | 0 |
| 736 | sour | 1:21.80 | 0 | 0 |
| 737 | Eitrexx | 1:21.82 | 0 | 0 |
| 737 | Shikhuh | 1:21.82 | 0 | 0 |
| 737 | NikoDaNeko | 1:21.82 | 0 | 0 |
| 740 | بꬶueȶȶe | 1:21.83 | 0 | 0 |
| 741 | Garott | 1:21.85 | 0 | 0 |
| 742 | colt5656 | 1:21.91 | 0 | 0 |
| 743 | Jodeth | 1:21.95 | 0 | 0 |
| 744 | HJQLF | 1:21.97 | 0 | 0 |
| 745 | Defiance_LLK | 1:22.04 | 0 | 0 |
| 745 | Ryowulf768 | 1:22.04 | 0 | 0 |
| 747 | Breno_SO | 1:22.09 | 0 | 0 |
| 748 | siafa | 1:22.11 | 0 | 0 |
| 749 | Numerousluke | 1:22.12 | 0 | 0 |
| 749 | Toxicologixal | 1:22.12 | 0 | 0 |
| 751 | R1PP | 1:22.13 | 0 | 0 |
| 752 | JestersFear | 1:22.14 | 0 | 0 |
| 752 | Add1son2013 | 1:22.14 | 0 | 0 |
| 754 | Echor | 1:22.28 | 0 | 0 |
| 755 | OMANEYE | 1:22.35 | 0 | 0 |
| 756 | [iNk] Primus | 1:22.39 | 0 | 0 |
| 757 | Loune Fire | 1:22.42 | 0 | 0 |
| 758 | --TuttiFrutti-- | 1:22.44 | 0 | 0 |
| 759 | jlo | 1:22.45 | 0 | 0 |
| 760 | 𝕵𝖆𝖓. | 1:22.46 | 0 | 0 |
| 761 | Donkey | 1:22.47 | 0 | 0 |
| 762 | Seal_Otter | 1:22.51 | 0 | 0 |
| 762 | Ditzy_Set | 1:22.51 | 0 | 0 |
| 764 | FifteenBread | 1:22.55 | 0 | 0 |
| 765 | Silver~ | 1:22.63 | 0 | 0 |
| 766 | uSafe | 1:22.69 | 0 | 0 |
| 767 | Deodus | 1:22.72 | 0 | 0 |
| 768 | Noah | 1:22.80 | 0 | 0 |
| 769 | Jorban | 1:22.83 | 0 | 0 |
| 769 | leo998 | 1:22.83 | 0 | 0 |
| 771 | TheWanderer05 | 1:22.89 | 0 | 0 |
| 771 | MileZ | 1:22.89 | 0 | 0 |
| 771 | Deriacus | 1:22.89 | 0 | 0 |
| 774 | Void | 1:23.10 | 0 | 0 |
| 775 | Saint Pierre | 1:23.13 | 0 | 0 |
| 776 | OneCent_HD | 1:23.17 | 0 | 0 |
| 777 | Animax | 1:23.20 | 0 | 0 |
| 778 | LeonEoC | 1:23.25 | 0 | 0 |
| 779 | Bubwubster | 1:23.27 | 0 | 0 |
| 780 | MCrekna1 | 1:23.29 | 0 | 0 |
| 781 | Mikouille | 1:23.35 | 0 | 0 |
| 782 | Waldo | 1:23.36 | 0 | 0 |
| 783 | Alexkurts | 1:23.39 | 0 | 0 |
| 783 | Dipironald | 1:23.39 | 0 | 0 |
| 785 | Aertex | 1:23.42 | 0 | 0 |
| 786 | Zoombie_™ | 1:23.49 | 0 | 0 |
| 787 | Surbias | 1:23.53 | 0 | 0 |
| 788 | D# | 1:23.55 | 0 | 0 |
| 789 | Frying Pan Man | 1:23.58 | 0 | 0 |
| 790 | Arie | 1:23.59 | 0 | 0 |
| 791 | cakemanlink | 1:23.62 | 0 | 0 |
| 792 | Shifted | 1:23.66 | 0 | 0 |
| 793 | EmeraldSlash | 1:23.73 | 0 | 0 |
| 794 | Voltaic | 1:23.77 | 0 | 0 |
| 794 | Lore maker | 1:23.77 | 0 | 0 |
| 796 | MrChicago | 1:23.84 | 0 | 0 |
| 797 | Big Bootiecoot | 1:23.90 | 0 | 0 |
| 798 | Quadrigon | 1:23.94 | 0 | 0 |
| 798 | TAILS | 1:23.94 | 0 | 0 |
| 800 | Magister Ludi | 1:24.01 | 0 | 0 |
| 801 | Zinja | 1:24.02 | 0 | 0 |
| 802 | Ieuan Maiden | 1:24.04 | 0 | 0 |
| 802 | Jonny | 1:24.04 | 0 | 0 |
| 804 | flower | 1:24.05 | 0 | 0 |
| 804 | 『Akkusativ』 | 1:24.05 | 0 | 0 |
| 806 | Sagara | 1:24.08 | 0 | 0 |
| 807 | gslayer14 | 1:24.11 | 0 | 0 |
| 808 | Garstine | 1:24.25 | 0 | 0 |
| 809 | Brianag010 | 1:24.26 | 0 | 0 |
| 810 | Xeinok | 1:24.39 | 0 | 0 |
| 811 | BaZMaN - Allkeyshop | 1:24.42 | 0 | 0 |
| 812 | IzzytehWolf | 1:24.45 | 0 | 0 |
| 813 | C4tch | 1:24.47 | 0 | 0 |
| 814 | Krull | 1:24.52 | 0 | 0 |
| 815 | Infernal00086 | 1:24.56 | 0 | 0 |
| 816 | MADCOCC | 1:24.62 | 0 | 0 |
| 817 | PIRATE | 1:24.63 | 0 | 0 |
| 818 | SP** | 1:24.77 | 0 | 0 |
| 819 | Glypse | 1:24.79 | 0 | 0 |
| 820 | samson13 | 1:24.80 | 0 | 0 |
| 821 | Dango | 1:24.82 | 0 | 0 |
| 822 | BBQ-Bacon-Pizza | 1:24.87 | 0 | 0 |
| 823 | Hiddelgreyk | 1:25.02 | 0 | 0 |
| 823 | Wyattwashere | 1:25.02 | 0 | 0 |
| 825 | Loreckine | 1:25.03 | 0 | 0 |
| 826 | DarkShadow | 1:25.04 | 0 | 0 |
| 827 | irken | 1:25.09 | 0 | 0 |
| 828 | UnFefeSauvage | 1:25.11 | 0 | 0 |
| 829 | sendthefish | 1:25.13 | 0 | 0 |
| 830 | rtrrbttzhrte | 1:25.18 | 0 | 0 |
| 831 | Honnse | 1:25.24 | 0 | 0 |
| 832 | Alesha170 | 1:25.25 | 0 | 0 |
| 832 | SirDan | 1:25.25 | 0 | 0 |
| 834 | Ame | 1:25.27 | 0 | 0 |
| 834 | TheIgnadog | 1:25.27 | 0 | 0 |
| 836 | RunawayJesus | 1:25.28 | 0 | 0 |
| 837 | Mike | 1:25.31 | 0 | 0 |
| 838 | ErzoopaRTR | 1:25.32 | 0 | 0 |
| 839 | PoopinAllDay | 1:25.34 | 0 | 0 |
| 840 | Yang Pjoter II | 1:25.35 | 0 | 0 |
| 841 | energize | 1:25.40 | 0 | 0 |
| 842 | ✨TOASTER✨ | 1:25.41 | 0 | 0 |
| 843 | onyxglow | 1:25.43 | 0 | 0 |
| 844 | K-NiGHT | 1:25.44 | 0 | 0 |
| 845 | UsableLoki | 1:25.45 | 0 | 0 |
| 846 | A Very Angy Opossum | 1:25.50 | 0 | 0 |
| 847 | Shyny Magikarp 🔸 | 1:25.56 | 0 | 0 |
| 847 | Maugan Ra | 1:25.56 | 0 | 0 |
| 849 | UltimateTone | 1:25.57 | 0 | 0 |
| 850 | WSBat | 1:25.58 | 0 | 0 |
| 851 | autistic pringle | 1:25.61 | 0 | 0 |
| 852 | OnyonSwomp | 1:25.62 | 0 | 0 |
| 853 | LissomChunk | 1:25.64 | 0 | 0 |
| 854 | Lux | 1:25.67 | 0 | 0 |
| 855 | Jass5991 | 1:25.68 | 0 | 0 |
| 855 | Murizar | 1:25.68 | 0 | 0 |
| 857 | VariousBlazertazer | 1:25.69 | 0 | 0 |
| 858 | Hanimani2 | 1:25.72 | 0 | 0 |
| 859 | Wildclaw | 1:25.75 | 0 | 0 |
| 860 | WindWT | 1:25.81 | 0 | 0 |
| 861 | Helpeg | 1:26.06 | 0 | 0 |
| 862 | Kynatic | 1:26.08 | 0 | 0 |
| 863 | mos | 1:26.11 | 0 | 0 |
| 864 | squirreljiz | 1:26.12 | 0 | 0 |
| 865 | [deleted] | 1:26.15 | 0 | 0 |
| 866 | Zarifi | 1:26.16 | 0 | 0 |
| 866 | Soil | 1:26.16 | 0 | 0 |
| 868 | Traetors | 1:26.25 | 0 | 0 |
| 869 | calne | 1:26.26 | 0 | 0 |
| 870 | vadimchelov | 1:26.27 | 0 | 0 |
| 871 | Vyneci | 1:26.28 | 0 | 0 |
| 872 | Ammy | 1:26.29 | 0 | 0 |
| 873 | heavylink2301 | 1:26.33 | 0 | 0 |
| 874 | K-A-I-N-E | 1:26.34 | 0 | 0 |
| 875 | Nephuxs | 1:26.36 | 0 | 0 |
| 876 | channel news | 1:26.40 | 0 | 0 |
| 877 | cully | 1:26.48 | 0 | 0 |
| 878 | Constable Mutton | 1:26.49 | 0 | 0 |
| 879 | Andy95 | 1:26.53 | 0 | 0 |
| 879 | starhorder | 1:26.53 | 0 | 0 |
| 881 | Reaster | 1:26.57 | 0 | 0 |
| 882 | Keiyo | 1:26.58 | 0 | 0 |
| 883 | Wannabe Waifu | 1:26.59 | 0 | 0 |
| 884 | Soaredfish | 1:26.64 | 0 | 0 |
| 885 | BlazeHedgehog | 1:26.65 | 0 | 0 |
| 886 | Burashi | 1:26.68 | 0 | 0 |
| 887 | Zenixic | 1:26.74 | 0 | 0 |
| 888 | Razgriez | 1:26.75 | 0 | 0 |
| 889 | Jezo | 1:26.77 | 0 | 0 |
| 890 | Aqui' | 1:26.79 | 0 | 0 |
| 891 | Alzeon | 1:26.82 | 0 | 0 |
| 892 | The Blue Milk Group | 1:26.83 | 0 | 0 |
| 893 | Unknown | 1:26.89 | 0 | 0 |
| 894 | Jutkutus | 1:26.90 | 0 | 0 |
| 895 | CturiX | 1:26.94 | 0 | 0 |
| 896 | ElHombre86 | 1:27.12 | 0 | 0 |
| 897 | Looks To The Moon | 1:27.15 | 0 | 0 |
| 898 | Arca | 1:27.18 | 0 | 0 |
| 899 | Dark Dane | 1:27.19 | 0 | 0 |
| 900 | gmacc930 | 1:27.21 | 0 | 0 |
| 901 | TartanKitty773 | 1:27.32 | 0 | 0 |
| 902 | Kypar | 1:27.33 | 0 | 0 |
| 903 | PowerMeep | 1:27.37 | 0 | 0 |
| 904 | Aperture Dude | 1:27.39 | 0 | 0 |
| 905 | marf | 1:27.46 | 0 | 0 |
| 905 | SPEEDYSPEEDBOI | 1:27.46 | 0 | 0 |
| 907 | Gnarrang | 1:27.47 | 0 | 0 |
| 907 | Sky_ | 1:27.47 | 0 | 0 |
| 909 | Mr Elusive | 1:27.48 | 0 | 0 |
| 909 | tipek360 | 1:27.48 | 0 | 0 |
| 911 | Dorphan | 1:27.50 | 0 | 0 |
| 912 | Negaprion | 1:27.57 | 0 | 0 |
| 913 | Blacky Stranger | 1:27.67 | 0 | 0 |
| 914 | robbiejm2 | 1:27.76 | 0 | 0 |
| 915 | SneakySN | 1:27.78 | 0 | 0 |
| 916 | GekoKid | 1:27.79 | 0 | 0 |
| 917 | Me an intellectual | 1:27.81 | 0 | 0 |
| 918 | Onur | 1:27.83 | 0 | 0 |
| 919 | Mr. Sborracchino | 1:27.86 | 0 | 0 |
| 919 | MiojoEXE | 1:27.86 | 0 | 0 |
| 921 | Dragemil | 1:27.89 | 0 | 0 |
| 922 | Sniggles | 1:27.96 | 0 | 0 |
| 922 | Seschbee | 1:27.96 | 0 | 0 |
| 924 | 猫かわいい | 1:28.01 | 0 | 0 |
| 925 | Agent Starlight | 1:28.03 | 0 | 0 |
| 926 | Eshael | 1:28.07 | 0 | 0 |
| 927 | Admiral Flanker | 1:28.08 | 0 | 0 |
| 928 | geonage | 1:28.09 | 0 | 0 |
| 929 | Maru | 1:28.10 | 0 | 0 |
| 930 | meadg | 1:28.13 | 0 | 0 |
| 931 | AntiGravPilot | 1:28.21 | 0 | 0 |
| 931 | Eleven27 | 1:28.21 | 0 | 0 |
| 933 | Biggus Bovinus | 1:28.22 | 0 | 0 |
| 933 | Zimmerman | 1:28.22 | 0 | 0 |
| 935 | highlandskull | 1:28.23 | 0 | 0 |
| 935 | Geraldo | 1:28.23 | 0 | 0 |
| 937 | Redrain100 | 1:28.27 | 0 | 0 |
| 938 | Natr | 1:28.41 | 0 | 0 |
| 939 | Zastier | 1:28.50 | 0 | 0 |
| 940 | What a save! | 1:28.54 | 0 | 0 |
| 941 | Legoyoda | 1:28.64 | 0 | 0 |
| 942 | Uranos | 1:28.69 | 0 | 0 |
| 943 | Okami 天照 | 1:28.75 | 0 | 0 |
| 944 | Eddy | 1:28.77 | 0 | 0 |
| 945 | potion | 1:28.80 | 0 | 0 |
| 946 | Okamitheus | 1:28.81 | 0 | 0 |
| 947 | Eclipse | 1:28.88 | 0 | 0 |
| 948 | Kriv | 1:28.93 | 0 | 0 |
| 949 | JerryDandridge | 1:28.94 | 0 | 0 |
| 950 | Afromation | 1:28.96 | 0 | 0 |
| 951 | joltz | 1:28.98 | 0 | 0 |
| 951 | Kiwora | 1:28.98 | 0 | 0 |
| 953 | Gloþ | 1:29.00 | 0 | 0 |
| 953 | Gamga | 1:29.00 | 0 | 0 |
| 955 | Monke | 1:29.05 | 0 | 0 |
| 956 | Prism Refract | 1:29.08 | 0 | 0 |
| 957 | Louis Thau | 1:29.09 | 0 | 0 |
| 958 | Dinkleberg | 1:29.13 | 0 | 0 |
| 959 | nsɐʞkasu | 1:29.18 | 0 | 0 |
| 960 | Phil | 1:29.22 | 0 | 0 |
| 961 | Ahmenuri | 1:29.27 | 0 | 0 |
| 962 | Mike4584 | 1:29.28 | 0 | 0 |
| 963 | rezzonating | 1:29.29 | 0 | 0 |
| 964 | krakentoa | 1:29.34 | 0 | 0 |
| 964 | SaltedFork | 1:29.34 | 0 | 0 |
| 966 | ramzi0500 | 1:29.39 | 0 | 0 |
| 967 | IchbinLuka | 1:29.41 | 0 | 0 |
| 968 | CrimsonFez | 1:29.47 | 0 | 0 |
| 968 | Yokai | 1:29.47 | 0 | 0 |
| 970 | Redrex786 | 1:29.49 | 0 | 0 |
| 971 | Zork | 1:29.59 | 0 | 0 |
| 972 | conduit | 1:29.65 | 0 | 0 |
| 973 | Majikaja | 1:29.67 | 0 | 0 |
| 974 | TS_Mind_Swept | 1:29.70 | 0 | 0 |
| 975 | russ117 | 1:29.73 | 0 | 0 |
| 976 | Chrisden | 1:29.76 | 0 | 0 |
| 977 | B'neppe | 1:29.79 | 0 | 0 |
| 978 | GlitchMeister | 1:29.80 | 0 | 0 |
| 979 | KJG | 1:29.86 | 0 | 0 |
| 980 | JohnCorby | 1:29.94 | 0 | 0 |
| 980 | iEatMarkerz | 1:29.94 | 0 | 0 |
| 982 | atpkaz | 1:29.99 | 0 | 0 |
| 983 | Mud | 1:30.00 | 0 | 0 |
| 983 | MGonz200 | 1:30.00 | 0 | 0 |
| 985 | Wylde.Tuk | 1:30.02 | 0 | 0 |
| 986 | Chase Me | 1:30.07 | 0 | 0 |
| 986 | 54mm7 | 1:30.07 | 0 | 0 |
| 988 | Synchronize | 1:30.13 | 0 | 0 |
| 989 | Frog-E | 1:30.14 | 0 | 0 |
| 990 | YoloMoth | 1:30.16 | 0 | 0 |
| 991 | Beets by Farmer Dre | 1:30.18 | 0 | 0 |
| 992 | Drakal Proto | 1:30.41 | 0 | 0 |
| 993 | AVeryTastyCactus | 1:30.42 | 0 | 0 |
| 994 | Roxas9001 | 1:30.51 | 0 | 0 |
| 995 | Naftal | 1:30.64 | 0 | 0 |
| 996 | DarkVoltageBCA | 1:30.70 | 0 | 0 |
| 997 | Ashen Marx | 1:30.74 | 0 | 0 |
| 998 | Count Spatula | 1:30.85 | 0 | 0 |
| 999 | Ijsthee | 1:30.96 | 0 | 0 |
| 1,000 | Phaserlight | 1:31.06 | 0 | 0 |
| 1,001 | ataraxia.wav | 1:31.13 | 0 | 0 |
| 1,002 | Sk8erSkaven (Washed) | 1:31.17 | 0 | 0 |
| 1,003 | Binho0™ | 1:31.18 | 0 | 0 |
| 1,004 | LittleHappyWolf | 1:31.33 | 0 | 0 |
| 1,005 | Sunzara | 1:31.38 | 0 | 0 |
| 1,006 | GORAi | 1:31.40 | 0 | 0 |
| 1,007 | AeroTheLich | 1:31.45 | 0 | 0 |
| 1,008 | THE DRINK | 1:31.59 | 0 | 0 |
| 1,009 | KingOfHell | 1:31.61 | 0 | 0 |
| 1,010 | edc | 1:31.62 | 0 | 0 |
| 1,011 | Sgt_Snowcone | 1:31.64 | 0 | 0 |
| 1,012 | Klukai | 1:31.66 | 0 | 0 |
| 1,013 | Ironman_2099 | 1:31.69 | 0 | 0 |
| 1,014 | CITIZEN_2O48 | 1:31.70 | 0 | 0 |
| 1,015 | davislb2 | 1:31.73 | 0 | 0 |
| 1,016 | Spartan117® | 1:31.77 | 0 | 0 |
| 1,017 | Apwou32 | 1:31.81 | 0 | 0 |
| 1,018 | Ultimate Avocado | 1:31.83 | 0 | 0 |
| 1,019 | Todd Bonzalez | 1:31.88 | 0 | 0 |
| 1,020 | mr_mc_dude | 1:31.96 | 0 | 0 |
| 1,020 | GhostFireGod | 1:31.96 | 0 | 0 |
| 1,022 | Kavracostra ˢᶜᶜᵖ | 1:31.97 | 0 | 0 |
| 1,023 | Flaccid Assassin | 1:32.00 | 0 | 0 |
| 1,024 | Rskon | 1:32.08 | 0 | 0 |
| 1,025 | endlesstabby | 1:32.11 | 0 | 0 |
| 1,026 | ReverseUno | 1:32.16 | 0 | 0 |
| 1,027 | ♿ | 1:32.24 | 0 | 0 |
| 1,028 | [RC] | 1:32.27 | 0 | 0 |
| 1,029 | Tuli | 1:32.51 | 0 | 0 |
| 1,030 | Tectronic | 1:32.56 | 0 | 0 |
| 1,031 | a&b | 1:32.58 | 0 | 0 |
| 1,032 | lt | 1:32.66 | 0 | 0 |
| 1,032 | StephanoLight | 1:32.66 | 0 | 0 |
| 1,034 | Wolfe Procter | 1:32.75 | 0 | 0 |
| 1,035 | 🪐 | 1:32.80 | 0 | 0 |
| 1,036 | Xandrak | 1:32.81 | 0 | 0 |
| 1,037 | Zombiebot King | 1:32.83 | 0 | 0 |
| 1,038 | Yuki | 1:32.94 | 0 | 0 |
| 1,039 | Shadowjoey | 1:32.95 | 0 | 0 |
| 1,040 | Lethologica7 | 1:32.99 | 0 | 0 |
| 1,041 | Amniotus | 1:33.15 | 0 | 0 |
| 1,042 | gustserve | 1:33.17 | 0 | 0 |
| 1,043 | meche-san | 1:33.20 | 0 | 0 |
| 1,044 | GD Taylor | 1:33.21 | 0 | 0 |
| 1,045 | Eit | 1:33.22 | 0 | 0 |
| 1,046 | Astraxis | 1:33.30 | 0 | 0 |
| 1,047 | Damon200 | 1:33.38 | 0 | 0 |
| 1,048 | hugelogan | 1:33.40 | 0 | 0 |
| 1,049 | Eddie980® | 1:33.45 | 0 | 0 |
| 1,050 | [OWL] Error404 | 1:33.49 | 0 | 0 |
| 1,051 | Glory | 1:33.50 | 0 | 0 |
| 1,052 | PalmTopDuck | 1:33.60 | 0 | 0 |
| 1,053 | xanthousphoenix | 1:33.61 | 0 | 0 |
| 1,054 | Tom_Com | 1:33.62 | 0 | 0 |
| 1,055 | Den1sArt | 1:33.65 | 0 | 0 |
| 1,056 | DomNation | 1:33.69 | 0 | 0 |
| 1,057 | ViryGo19 | 1:33.74 | 0 | 0 |
| 1,058 | The Warcube | 1:33.84 | 0 | 0 |
| 1,059 | Pinapl | 1:33.88 | 0 | 0 |
| 1,060 | Hornsking | 1:33.98 | 0 | 0 |
| 1,060 | TTV/TheXvisionary | 1:33.98 | 0 | 0 |
| 1,062 | Sylvester | 1:34.08 | 0 | 0 |
| 1,063 | J4M3Z34 | 1:34.09 | 0 | 0 |
| 1,064 | Bios | 1:34.16 | 0 | 0 |
| 1,065 | stickychicken | 1:34.18 | 0 | 0 |
| 1,066 | Soil | 1:34.21 | 0 | 0 |
| 1,067 | MrNicerDicer | 1:34.22 | 0 | 0 |
| 1,068 | Dan brDorman | 1:34.24 | 0 | 0 |
| 1,069 | Heliomachit | 1:34.33 | 0 | 0 |
| 1,070 | // Vaffe | 1:34.34 | 0 | 0 |
| 1,071 | HarryHotpants | 1:34.37 | 0 | 0 |
| 1,071 | sen | 1:34.37 | 0 | 0 |
| 1,073 | AyyLmeow | 1:34.38 | 0 | 0 |
| 1,074 | capncrumbles | 1:34.43 | 0 | 0 |
| 1,075 | Porte Patio 76 | 1:34.48 | 0 | 0 |
| 1,076 | dizndaz | 1:34.49 | 0 | 0 |
| 1,077 | ausharle | 1:34.50 | 0 | 0 |
| 1,078 | Bubbet! | 1:34.63 | 0 | 0 |
| 1,079 | zombikiller55 | 1:34.66 | 0 | 0 |
| 1,080 | olivia | 1:34.74 | 0 | 0 |
| 1,081 | Kevmert | 1:34.79 | 0 | 0 |
| 1,082 | MFHxTiptoe | 1:34.87 | 0 | 0 |
| 1,083 | LvlGenesis | 1:34.92 | 0 | 0 |
| 1,084 | < M A T > | 1:34.95 | 0 | 0 |
| 1,085 | Hydrochoerus | 1:34.96 | 0 | 0 |
| 1,086 | Kansil | 1:35.00 | 0 | 0 |
| 1,087 | FreakingAwesomeWooper | 1:35.02 | 0 | 0 |
| 1,088 | TheItsch | 1:35.05 | 0 | 0 |
| 1,089 | Togna | 1:35.08 | 0 | 0 |
| 1,090 | Xaiux | 1:35.09 | 0 | 0 |
| 1,091 | Bohemius | 1:35.10 | 0 | 0 |
| 1,092 | JaNanna | 1:35.12 | 0 | 0 |
| 1,093 | SauronGamer | 1:35.13 | 0 | 0 |
| 1,094 | Tokyo. | 1:35.27 | 0 | 0 |
| 1,095 | трдельник | 1:35.32 | 0 | 0 |
| 1,096 | Buck | 1:35.38 | 0 | 0 |
| 1,097 | Sentynel | 1:35.44 | 0 | 0 |
| 1,098 | ERIC STRIKE INCOMING | 1:35.45 | 0 | 0 |
| 1,098 | Moon Fairy Kyra | 1:35.45 | 0 | 0 |
| 1,100 | Dragonsbane1270 | 1:35.48 | 0 | 0 |
| 1,101 | Tsume Shiro | 1:35.49 | 0 | 0 |
| 1,101 | zeyatsu. | 1:35.49 | 0 | 0 |
| 1,103 | Ruslan145 | 1:35.73 | 0 | 0 |
| 1,104 | fluffi | 1:35.77 | 0 | 0 |
| 1,105 | Pepperoni Dog Fart | 1:35.81 | 0 | 0 |
| 1,106 | Sibsen | 1:35.88 | 0 | 0 |
| 1,107 | Alex | 1:35.89 | 0 | 0 |
| 1,108 | Autonomus | 1:35.92 | 0 | 0 |
| 1,109 | Bara_Coded[FR] | 1:35.93 | 0 | 0 |
| 1,110 | Ape Tea | 1:35.99 | 0 | 0 |
| 1,111 | Skybox | 1:36.14 | 0 | 0 |
| 1,112 | Seya La Chouette | 1:36.15 | 0 | 0 |
| 1,112 | carp | 1:36.15 | 0 | 0 |
| 1,114 | Zaster | 1:36.26 | 0 | 0 |
| 1,114 | meberbs | 1:36.26 | 0 | 0 |
| 1,114 | Shjohn | 1:36.26 | 0 | 0 |
| 1,117 | Евгений Пригожин | 1:36.28 | 0 | 0 |
| 1,118 | Judas | 1:36.41 | 0 | 0 |
| 1,119 | smug anime girl | 1:36.47 | 0 | 0 |
| 1,120 | Colt Emu | 1:36.51 | 0 | 0 |
| 1,121 | Johnnino | 1:36.64 | 0 | 0 |
| 1,122 | Megacrafter127 | 1:36.68 | 0 | 0 |
| 1,123 | Vortexesz | 1:36.69 | 0 | 0 |
| 1,124 | reeko | 1:36.82 | 0 | 0 |
| 1,125 | Eggs Gwenedict | 1:36.83 | 0 | 0 |
| 1,126 | gmatsam32 | 1:36.89 | 0 | 0 |
| 1,127 | The Tall Leprechaun | 1:36.90 | 0 | 0 |
| 1,128 | MIAT | 1:36.91 | 0 | 0 |
| 1,129 | hAwG | 1:36.93 | 0 | 0 |
| 1,130 | A Legal Alien | 1:37.04 | 0 | 0 |
| 1,131 | Ivoryshovel | 1:37.16 | 0 | 0 |
| 1,132 | Well Shit | 1:37.22 | 0 | 0 |
| 1,133 | TheHimta | 1:37.25 | 0 | 0 |
| 1,134 | Krogoth | 1:37.32 | 0 | 0 |
| 1,135 | Verity | 1:37.42 | 0 | 0 |
| 1,136 | TokkiTemple | 1:37.43 | 0 | 0 |
| 1,137 | unnamed player | 1:37.52 | 0 | 0 |
| 1,138 | Afterburner | 1:37.55 | 0 | 0 |
| 1,138 | Fenny | 1:37.55 | 0 | 0 |
| 1,140 | 16aroth6 | 1:37.57 | 0 | 0 |
| 1,140 | NegAtiVeBloOd09 | 1:37.57 | 0 | 0 |
| 1,142 | Chipboard | 1:37.66 | 0 | 0 |
| 1,142 | Pinguin | 1:37.66 | 0 | 0 |
| 1,144 | simplesystem | 1:37.68 | 0 | 0 |
| 1,145 | Destelus | 1:37.73 | 0 | 0 |
| 1,145 | Minefreak6633 | 1:37.73 | 0 | 0 |
| 1,147 | Leviticus Blue | 1:37.76 | 0 | 0 |
| 1,148 | Black9 | 1:37.82 | 0 | 0 |
| 1,149 | Monitor3437 | 1:37.88 | 0 | 0 |
| 1,150 | PartTimeCanadian | 1:37.97 | 0 | 0 |
| 1,151 | Nanohm The Protogen | 1:37.98 | 0 | 0 |
| 1,152 | poop car that is made of poop | 1:38.01 | 0 | 0 |
| 1,153 | Inzarin | 1:38.04 | 0 | 0 |
| 1,154 | shamshel | 1:38.13 | 0 | 0 |
| 1,155 | Camyx | 1:38.31 | 0 | 0 |
| 1,156 | Shons-probably-here | 1:38.39 | 0 | 0 |
| 1,157 | Kunya The Scoot | 1:38.44 | 0 | 0 |
| 1,157 | Alikey | 1:38.44 | 0 | 0 |
| 1,159 | Daison | 1:38.56 | 0 | 0 |
| 1,160 | KindGuillotine | 1:38.75 | 0 | 0 |
| 1,161 | Turavis | 1:38.81 | 0 | 0 |
| 1,162 | Elysian Phoenix | 1:39.05 | 0 | 0 |
| 1,163 | LeBonhomme | 1:39.08 | 0 | 0 |
| 1,164 | Schranzinator | 1:39.40 | 0 | 0 |
| 1,165 | ´H U E V O S' | 1:39.43 | 0 | 0 |
| 1,166 | MatscheMunkey | 1:39.50 | 0 | 0 |
| 1,167 | Nyra | 1:39.61 | 0 | 0 |
| 1,167 | [BIT]Tonic | 1:39.61 | 0 | 0 |
| 1,169 | ( ჯ෴✘)helking | 1:39.75 | 0 | 0 |
| 1,170 | Nordman | 1:39.78 | 0 | 0 |
| 1,171 | bread | 1:39.92 | 0 | 0 |
| 1,172 | Nim | 1:39.97 | 0 | 0 |
| 1,173 | Running With Razors | 1:40.08 | 0 | 0 |
| 1,174 | KingSpammerNerd | 1:40.10 | 0 | 0 |
| 1,175 | FRΛCTURΞD SOUL | 1:40.23 | 0 | 0 |
| 1,176 | Daemon | 1:40.57 | 0 | 0 |
| 1,177 | torcht | 1:40.73 | 0 | 0 |
| 1,178 | OakvaleKnight | 1:40.84 | 0 | 0 |
| 1,179 | BONzi | 1:40.86 | 0 | 0 |
| 1,180 | pixmantle | 1:40.89 | 0 | 0 |
| 1,181 | Kabelsalat | 1:40.98 | 0 | 0 |
| 1,182 | Winters | 1:41.01 | 0 | 0 |
| 1,183 | snowstate | 1:41.07 | 0 | 0 |
| 1,184 | SuperTechDragon | 1:41.11 | 0 | 0 |
| 1,185 | Galaxian | 1:41.17 | 0 | 0 |
| 1,185 | 湾岸 | Taz | 1:41.17 | 0 | 0 |
| 1,187 | Corvus and Crater | 1:41.22 | 0 | 0 |
| 1,188 | Terr4 | 1:41.30 | 0 | 0 |
| 1,189 | Confetti | 1:41.45 | 0 | 0 |
| 1,189 | burnheart1337 | 1:41.45 | 0 | 0 |
| 1,191 | mag | 1:41.67 | 0 | 0 |
| 1,192 | LIGHTNING THE FOX | 1:41.72 | 0 | 0 |
| 1,193 | Boi | 1:41.77 | 0 | 0 |
| 1,194 | MrUnbecoming | 1:41.82 | 0 | 0 |
| 1,195 | MitKit | 1:42.01 | 0 | 0 |
| 1,195 | Bored to Death | 1:42.01 | 0 | 0 |
| 1,197 | JamesArk | 1:42.21 | 0 | 0 |
| 1,198 | Joyce | 1:42.24 | 0 | 0 |
| 1,199 | Jabreen | 1:42.28 | 0 | 0 |
| 1,200 | DennisTheLogin | 1:42.38 | 0 | 0 |
| 1,201 | Bark Obama | 1:42.39 | 0 | 0 |
| 1,202 | solar_roller | 1:42.41 | 0 | 0 |
| 1,203 | P E P S I M A N | 1:42.43 | 0 | 0 |
| 1,204 | HollyPotato | 1:42.46 | 0 | 0 |
| 1,205 | T1REL | 1:42.49 | 0 | 0 |
| 1,205 | Felixcalm | 1:42.49 | 0 | 0 |
| 1,207 | Loot Hunter | 1:42.50 | 0 | 0 |
| 1,208 | sterl | 1:42.55 | 0 | 0 |
| 1,209 | GR8LND | 1:42.64 | 0 | 0 |
| 1,210 | Rádian | 1:42.68 | 0 | 0 |
| 1,211 | WonderSnail | 1:42.75 | 0 | 0 |
| 1,212 | Mx | 1:42.83 | 0 | 0 |
| 1,213 | yohanverco | 1:42.92 | 0 | 0 |
| 1,214 | ketikidistv | 1:43.00 | 0 | 0 |
| 1,215 | Church | 1:43.06 | 0 | 0 |
| 1,216 | Omega_Raptors | 1:43.28 | 0 | 0 |
| 1,217 | Agroman12 | 1:43.44 | 0 | 0 |
| 1,218 | Cliffeon | 1:43.52 | 0 | 0 |
| 1,219 | |SPQR| Toruk | 1:43.56 | 0 | 0 |
| 1,219 | Halo God | 1:43.56 | 0 | 0 |
| 1,221 | Alice | 1:43.64 | 0 | 0 |
| 1,222 | VC42 | 1:43.84 | 0 | 0 |
| 1,223 | F1220 | 1:43.88 | 0 | 0 |
| 1,224 | Soferia | 1:43.97 | 0 | 0 |
| 1,225 | ipodjo | 1:44.09 | 0 | 0 |
| 1,226 | Darkness | 1:44.12 | 0 | 0 |
| 1,227 | FearInDarkness | 1:44.17 | 0 | 0 |
| 1,228 | ZW98 | 1:44.20 | 0 | 0 |
| 1,229 | .gg/autowall | 1:44.26 | 0 | 0 |
| 1,230 | NickolasII | 1:44.49 | 0 | 0 |
| 1,231 | Mallow | 1:44.56 | 0 | 0 |
| 1,231 | Geertje | 1:44.56 | 0 | 0 |
| 1,233 | Pixelbo | 1:44.63 | 0 | 0 |
| 1,234 | JustB4DW0LF | 1:44.77 | 0 | 0 |
| 1,235 | KiGaL | 1:44.82 | 0 | 0 |
| 1,236 | Brother1g | 1:44.98 | 0 | 0 |
| 1,237 | Babriga | 1:45.07 | 0 | 0 |
| 1,238 | NewCH | 1:45.14 | 0 | 0 |
| 1,239 | Jaxon_Knight | 1:45.36 | 0 | 0 |
| 1,240 | пластилин | 1:45.39 | 0 | 0 |
| 1,241 | RuskiRussian | 1:45.53 | 0 | 0 |
| 1,242 | [CS-ézus] MILFHUNTERHUN | 1:45.55 | 0 | 0 |
| 1,243 | Sup3rUnicornGuy | 1:45.64 | 0 | 0 |
| 1,244 | Isabella | 1:45.66 | 0 | 0 |
| 1,245 | Hakaishin 暁 | 1:45.76 | 0 | 0 |
| 1,246 | lift ur pooltoy tail for me | 1:45.77 | 0 | 0 |
| 1,247 | dpgibney | 1:45.85 | 0 | 0 |
| 1,248 | Tredadawn | 1:45.90 | 0 | 0 |
| 1,249 | hip crusher | 1:45.94 | 0 | 0 |
| 1,250 | Lokorit | 1:45.95 | 0 | 0 |
| 1,250 | Dragonfire6776 | 1:45.95 | 0 | 0 |
| 1,252 | 01011011010 | 1:46.00 | 0 | 0 |
| 1,253 | Niku | 1:46.09 | 0 | 0 |
| 1,254 | AstroBold | 1:46.10 | 0 | 0 |
| 1,255 | troysmith14 | 1:46.12 | 0 | 0 |
| 1,256 | Misanthrope | 1:46.23 | 0 | 0 |
| 1,257 | Fluke | 1:46.35 | 0 | 0 |
| 1,258 | Ministro | 1:46.49 | 0 | 0 |
| 1,259 | Admiral Pond Scum | 1:46.55 | 0 | 0 |
| 1,260 | Noboty | 1:46.60 | 0 | 0 |
| 1,261 | Zaz Bellum | 1:46.76 | 0 | 0 |
| 1,262 | Kirby's5thDUI | 1:46.84 | 0 | 0 |
| 1,263 | Super Turbo Turkey Puncher | 1:46.89 | 0 | 0 |
| 1,264 | Fire Claw | 1:46.98 | 0 | 0 |
| 1,265 | Wipeout! | 1:47.05 | 0 | 0 |
| 1,266 | Gasmasko | 1:47.15 | 0 | 0 |
| 1,267 | w5k | 1:47.21 | 0 | 0 |
| 1,268 | Uldergoff | 1:47.23 | 0 | 0 |
| 1,269 | moth | 1:47.51 | 0 | 0 |
| 1,270 | Pigeon | 1:47.53 | 0 | 0 |
| 1,271 | flourideghoul209 | 1:47.58 | 0 | 0 |
| 1,272 | Bishop][ | 1:47.66 | 0 | 0 |
| 1,273 | Isosceles | 1:47.69 | 0 | 0 |
| 1,274 | Ostman | 1:47.79 | 0 | 0 |
| 1,275 | 문경왕개미 | 1:48.01 | 0 | 0 |
| 1,276 | yuri gagarin's creamy interior | 1:48.24 | 0 | 0 |
| 1,277 | ThePavLian | 1:48.25 | 0 | 0 |
| 1,278 | Syolla | 1:48.39 | 0 | 0 |
| 1,279 | Pelailija | 1:48.42 | 0 | 0 |
| 1,280 | TekDoug | 1:48.54 | 0 | 0 |
| 1,281 | Stanislavovich²³ | 1:48.59 | 0 | 0 |
| 1,282 | Malcom | 1:48.63 | 0 | 0 |
| 1,283 | CaesarDClown | 1:48.69 | 0 | 0 |
| 1,284 | NostalgicRage | 1:48.77 | 0 | 0 |
| 1,285 | DotN | 1:48.83 | 0 | 0 |
| 1,286 | Baudolino | 1:48.90 | 0 | 0 |
| 1,287 | ZephyrBlaze1 | 1:49.17 | 0 | 0 |
| 1,288 | Не Просто пингвин | 1:49.18 | 0 | 0 |
| 1,289 | Tav | 1:49.21 | 0 | 0 |
| 1,290 | Janos Bartok, Esq. | 1:49.34 | 0 | 0 |
| 1,291 | Metamoq | 1:49.36 | 0 | 0 |
| 1,292 | Girahimu | 1:49.59 | 0 | 0 |
| 1,293 | dhampirassassin | 1:49.69 | 0 | 0 |
| 1,294 | NaterrTheBull | 1:49.77 | 0 | 0 |
| 1,295 | nenadalm | 1:49.87 | 0 | 0 |
| 1,296 | The Driver | 1:50.15 | 0 | 0 |
| 1,297 | sevenofnone | 1:50.16 | 0 | 0 |
| 1,298 | Haymú | 1:50.29 | 0 | 0 |
| 1,299 | Hinfrem | 1:50.31 | 0 | 0 |
| 1,300 | Based Q | 1:50.41 | 0 | 0 |
| 1,301 | Snowdrake | 1:50.46 | 0 | 0 |
| 1,302 | [DEBILS] Araken | 1:50.52 | 0 | 0 |
| 1,303 | galactic depression | 1:50.63 | 0 | 0 |
| 1,304 | GrayHat | 1:50.73 | 0 | 0 |
| 1,304 | Moodeng | 1:50.73 | 0 | 0 |
| 1,306 | Lucky | 1:50.78 | 0 | 0 |
| 1,307 | DJairmaster | 1:50.80 | 0 | 0 |
| 1,308 | Noctasyle | 1:50.85 | 0 | 0 |
| 1,309 | Shan | 1:50.99 | 0 | 0 |
| 1,310 | 01sduran | 1:51.00 | 0 | 0 |
| 1,311 | [TSA] Siggi | 1:51.01 | 0 | 0 |
| 1,312 | Lolinomicon | 1:51.17 | 0 | 0 |
| 1,313 | Rázzer | 1:51.33 | 0 | 0 |
| 1,314 | [Lard] Kriltch | 1:51.34 | 0 | 0 |
| 1,315 | ReneeDesiree | 1:51.55 | 0 | 0 |
| 1,316 | Grensie | 1:51.73 | 0 | 0 |
| 1,317 | KokiKoi | 1:51.78 | 0 | 0 |
| 1,318 | brelar298 | 1:51.85 | 0 | 0 |
| 1,319 | yu-red-fish | 1:51.90 | 0 | 0 |
| 1,320 | FrostCorp | 1:51.98 | 0 | 0 |
| 1,321 | XxBrixlyxX | 1:52.01 | 0 | 0 |
| 1,322 | Schleck | 1:52.02 | 0 | 0 |
| 1,323 | Apple | 1:52.09 | 0 | 0 |
| 1,324 | Fazz! | 1:52.15 | 0 | 0 |
| 1,325 | Talii | 1:52.17 | 0 | 0 |
| 1,326 | Uholyn | 1:52.18 | 0 | 0 |
| 1,326 | echoesguideme | 1:52.18 | 0 | 0 |
| 1,328 | Arn-Mulet | 1:52.26 | 0 | 0 |
| 1,329 | MKP | 1:52.49 | 0 | 0 |
| 1,330 | The Grimspeeder | 1:52.83 | 0 | 0 |
| 1,331 | opin14.5 | 1:53.01 | 0 | 0 |
| 1,332 | OniFreya | 1:53.27 | 0 | 0 |
| 1,333 | Lud | Forest | 1:53.53 | 0 | 0 |
| 1,334 | Mene | 1:53.55 | 0 | 0 |
| 1,335 | boned avery | 1:53.60 | 0 | 0 |
| 1,336 | fretzak | 1:53.99 | 0 | 0 |
| 1,337 | BerylRose | 1:54.15 | 0 | 0 |
| 1,338 | Pteroborne | 1:54.37 | 0 | 0 |
| 1,339 | The Phat Monstah | 1:54.46 | 0 | 0 |
| 1,340 | Alkahest | 1:54.53 | 0 | 0 |
| 1,341 | Pappaknupp | 1:54.85 | 0 | 0 |
| 1,342 | 204863 | 1:55.06 | 0 | 0 |
| 1,343 | Neo dans la matrice | 1:55.08 | 0 | 0 |
| 1,344 | Broly | 1:55.31 | 0 | 0 |
| 1,345 | That One Panda | 1:55.94 | 0 | 0 |
| 1,346 | Phoenix (Nixsoul) | 1:55.96 | 0 | 0 |
| 1,347 | Pikachu | 1:56.12 | 0 | 0 |
| 1,348 | FlangEG | 1:56.13 | 0 | 0 |
| 1,349 | Nicholas | 1:56.14 | 0 | 0 |
| 1,350 | paintbrushpuke | 1:56.56 | 0 | 0 |
| 1,351 | Firel | 1:56.62 | 0 | 0 |
| 1,352 | SlenderBonnie | 1:56.64 | 0 | 0 |
| 1,353 | throbbing_fish | 1:56.65 | 0 | 0 |
| 1,354 | SAGA | 1:56.76 | 0 | 0 |
| 1,355 | DovahWolf | 1:56.80 | 0 | 0 |
| 1,356 | Meldiron | 1:57.00 | 0 | 0 |
| 1,357 | DJ Sexypants | 1:57.23 | 0 | 0 |
| 1,358 | Brunus Arkkaza | 1:57.80 | 0 | 0 |
| 1,359 | Pasimero | 1:57.83 | 0 | 0 |
| 1,360 | Pagay | 1:57.85 | 0 | 0 |
| 1,361 | Trinagan | 1:58.04 | 0 | 0 |
| 1,362 | Big Kahuna | 1:58.07 | 0 | 0 |
| 1,363 | Hightree | 1:58.40 | 0 | 0 |
| 1,364 | Cronk | 1:58.75 | 0 | 0 |
| 1,365 | Firestix | 1:58.84 | 0 | 0 |
| 1,366 | Old Bastard | 1:58.92 | 0 | 0 |
| 1,367 | Razsberry | 1:59.05 | 0 | 0 |
| 1,368 | Creepersrock24Gaming | 1:59.08 | 0 | 0 |
| 1,369 | Ultor | 1:59.14 | 0 | 0 |
| 1,370 | we is literally the elfs | 1:59.26 | 0 | 0 |
| 1,371 | lira.rospionne | 1:59.40 | 0 | 0 |
| 1,372 | SodarCZ | 1:59.47 | 0 | 0 |
| 1,373 | Starlix | 1:59.58 | 0 | 0 |
| 1,374 | elvonstrokinoff | 1:59.62 | 0 | 0 |
| 1,375 | D2C | Chrisc02 | 1:59.81 | 0 | 0 |
| 1,376 | DuckInTheSoup | 1:59.86 | 0 | 0 |
| 1,377 | vikliks | 2:00.32 | 0 | 0 |
| 1,378 | SunnyBruh | 2:00.52 | 0 | 0 |
| 1,379 | Tictactucrac [FR] | 2:01.03 | 0 | 0 |
| 1,380 | Mellowmald | 2:01.43 | 0 | 0 |
| 1,381 | Dgeept | 2:01.51 | 0 | 0 |
| 1,382 | NonoGhettoYouth | 2:01.65 | 0 | 0 |
| 1,383 | Lowtide | 2:01.76 | 0 | 0 |
| 1,384 | JadeWing | 2:01.84 | 0 | 0 |
| 1,385 | Zeraphen | 2:01.98 | 0 | 0 |
| 1,386 | Youpla ! | 2:01.99 | 0 | 0 |
| 1,387 | Great dodecicosidodecahedron | 2:02.12 | 0 | 0 |
| 1,388 | Lordpizzaroll | 2:02.34 | 0 | 0 |
| 1,389 | The Laughing Burger | 2:02.66 | 0 | 0 |
| 1,389 | EMPTY | 2:02.66 | 0 | 0 |
| 1,391 | Linuxman | 2:03.46 | 0 | 0 |
| 1,392 | bruno_revolut | 2:04.15 | 0 | 0 |
| 1,393 | miro. | 2:04.21 | 0 | 0 |
| 1,394 | dude | 2:04.23 | 0 | 0 |
| 1,395 | JJ the housecat | 2:04.45 | 0 | 0 |
| 1,396 | Layla | 2:04.50 | 0 | 0 |
| 1,397 | genauso | 2:04.54 | 0 | 0 |
| 1,398 | Tamer | 2:04.69 | 0 | 0 |
| 1,399 | lucas | 2:04.99 | 0 | 0 |
| 1,400 | Requiem | 2:05.14 | 0 | 0 |
| 1,401 | Zabava | 2:05.22 | 0 | 0 |
| 1,402 | Obi-Wine Cannubi | 2:05.61 | 0 | 0 |
| 1,403 | Voxr | 2:05.64 | 0 | 0 |
| 1,404 | pie | 2:06.33 | 0 | 0 |
| 1,405 | TG | 2:06.44 | 0 | 0 |
| 1,406 | inderinfi | 2:07.28 | 0 | 0 |
| 1,407 | Kronkanator309 | 2:07.57 | 0 | 0 |
| 1,408 | Birdiot | 2:08.15 | 0 | 0 |
| 1,409 | Hawke | 2:09.01 | 0 | 0 |
| 1,410 | <(CKS)>HUNTER0CALVARY | 2:09.11 | 0 | 0 |
| 1,411 | Rakaim | 2:10.23 | 0 | 0 |
| 1,412 | Xenju | 2:10.37 | 0 | 0 |
| 1,413 | Dr. Tiefling | 2:10.85 | 0 | 0 |
| 1,414 | [CPC] Loddfafnir | 2:11.01 | 0 | 0 |
| 1,415 | jasixtx | 2:11.44 | 0 | 0 |
| 1,416 | QueenPotato | 2:11.73 | 0 | 0 |
| 1,417 | Piiec | 2:12.07 | 0 | 0 |
| 1,418 | anysha [VC2] | 2:13.21 | 0 | 0 |
| 1,419 | ding | 2:13.39 | 0 | 0 |
| 1,420 | Final | 2:13.47 | 0 | 0 |
| 1,421 | fizzler | 2:13.59 | 0 | 0 |
| 1,422 | CapleGuion | 2:13.64 | 0 | 0 |
| 1,423 | Guelah Papyrus | 2:13.67 | 0 | 0 |
| 1,424 | Lord Daddy Baron Von Handsome | 2:13.87 | 0 | 0 |
| 1,425 | ExoVamp | 2:13.95 | 0 | 0 |
| 1,426 | ⛧CR4CKERS⛧ | 2:13.96 | 0 | 0 |
| 1,427 | McBoobzy | 2:14.73 | 0 | 0 |
| 1,428 | UnlimitedDucks | 2:14.75 | 0 | 0 |
| 1,429 | boroboroboroboroboro | 2:15.29 | 0 | 0 |
| 1,430 | thehoodedfigure101 | 2:15.41 | 0 | 0 |
| 1,431 | Cutover | 2:16.24 | 0 | 0 |
| 1,432 | Spark7979 | 2:16.25 | 0 | 0 |
| 1,433 | -zaz23- | 2:16.45 | 0 | 0 |
| 1,434 | ThunderSandr | 2:17.38 | 0 | 0 |
| 1,435 | IndusRobot | 2:17.41 | 0 | 0 |
| 1,436 | acro | 2:17.93 | 0 | 0 |
| 1,437 | Zhaxtbrecht | 2:18.18 | 0 | 0 |
| 1,438 | JaimmyShine | 2:18.48 | 0 | 0 |
| 1,439 | Legion | 2:18.54 | 0 | 0 |
| 1,439 | graymarker | 2:18.54 | 0 | 0 |
| 1,441 | Firverior | 2:18.55 | 0 | 0 |
| 1,442 | JetpackCat | 2:18.79 | 0 | 0 |
| 1,443 | Wolvahulk | 2:19.05 | 0 | 0 |
| 1,444 | TheBlackParade | 2:19.24 | 0 | 0 |
| 1,445 | Jaazielito | 2:22.19 | 0 | 0 |
| 1,446 | Im Tip. I love acceleracers. | 2:22.84 | 0 | 0 |
| 1,447 | Mujin | 2:23.11 | 0 | 0 |
| 1,448 | Lampshaede | 2:23.63 | 0 | 0 |
| 1,449 | ONLY STRAIGHT IS NORMAL, FREAKS! | 2:24.30 | 0 | 0 |
| 1,450 | BioPaw | 2:24.89 | 0 | 0 |
| 1,451 | Dogus | 2:24.98 | 0 | 0 |
| 1,452 | Demoncowboy18 | 2:25.43 | 0 | 0 |
| 1,453 | Cool Chatter | 2:25.68 | 0 | 0 |
| 1,454 | SebasPapas | 2:26.19 | 0 | 0 |
| 1,455 | kill everyone and leave | 2:26.78 | 0 | 0 |
| 1,456 | God's Dad | 2:27.72 | 0 | 0 |
| 1,457 | Tarvis Scotch | 2:28.53 | 0 | 0 |
| 1,458 | nocompzero | 2:28.58 | 0 | 0 |
| 1,459 | jooize | 2:29.20 | 0 | 0 |
| 1,460 | Cheetah1120 | 2:30.78 | 0 | 0 |
| 1,461 | WarNorth | 2:31.54 | 0 | 0 |
| 1,462 | Panini | 2:32.94 | 0 | 0 |
| 1,463 | rosy's aqua garden of pure love | 2:33.02 | 0 | 0 |
| 1,464 | Humphry | 2:33.46 | 0 | 0 |
| 1,465 | RegretfulTaco | 2:33.47 | 0 | 0 |
| 1,466 | 听党指挥能打胜仗 | 2:34.50 | 0 | 0 |
| 1,467 | Сивkа | 2:35.23 | 0 | 0 |
| 1,468 | sad soft goth | 2:35.30 | 0 | 0 |
| 1,469 | Panfiro | 2:37.21 | 0 | 0 |
| 1,470 | DieMarlboroFrau | 2:37.59 | 0 | 0 |
| 1,471 | alpha | 2:38.14 | 0 | 0 |
| 1,472 | Aidyyn | 2:38.52 | 0 | 0 |
| 1,473 | rickiy45 | 2:38.55 | 0 | 0 |
| 1,474 | FancyFajita | 2:38.58 | 0 | 0 |
| 1,475 | Bellarella | 2:39.33 | 0 | 0 |
| 1,476 | Darkness_Ride | 2:40.07 | 0 | 0 |
| 1,477 | pek | 2:42.04 | 0 | 0 |
| 1,478 | Nattapoller X | 2:44.21 | 0 | 0 |
| 1,479 | Mace | 2:44.96 | 0 | 0 |
| 1,480 | RocketLauncherMan | 2:45.52 | 0 | 0 |
| 1,481 | Juma | 2:46.23 | 0 | 0 |
| 1,482 | Yayi | 2:46.56 | 0 | 0 |
| 1,483 | saltykimchii | 2:47.15 | 0 | 0 |
| 1,484 | Mettaray | 2:47.20 | 0 | 0 |
| 1,485 | Big Boi Bazunga | 2:47.98 | 0 | 0 |
| 1,486 | byte4554 | 2:48.74 | 0 | 0 |
| 1,487 | PyroGaud | 2:49.10 | 0 | 0 |
| 1,488 | Förmaaki | 2:49.37 | 0 | 0 |
| 1,489 | The Meowdalorian | 2:51.63 | 0 | 0 |
| 1,490 | Norisu_Nine4863 | 2:52.90 | 0 | 0 |
| 1,491 | AlexWolf | 2:54.89 | 0 | 0 |
| 1,492 | Bam | 2:55.49 | 0 | 0 |
| 1,493 | AntiSol | 2:56.96 | 0 | 0 |
| 1,494 | aviarus (proton-ge) | 2:57.76 | 0 | 0 |
| 1,495 | siko | 3:00.61 | 0 | 0 |
| 1,496 | The Reaper | 3:06.99 | 0 | 0 |
| 1,497 | Cluh 2 | 3:07.65 | 0 | 0 |
| 1,498 | Shippel | 3:08.19 | 0 | 0 |
| 1,499 | Minyon69 | 3:10.95 | 0 | 0 |
| 1,500 | Убийца Нубов | 3:10.96 | 0 | 0 |
| 1,501 | PocketLolly | 3:12.79 | 0 | 0 |
| 1,502 | e⁻ | 3:13.22 | 0 | 0 |
| 1,502 | YFARMA3RT | 3:13.22 | 0 | 0 |
| 1,504 | Int. Vizion | 3:22.70 | 0 | 0 |
| 1,505 | Smøka | 3:31.26 | 0 | 0 |
| 1,506 | acerisodd | 3:32.81 | 0 | 0 |
| 1,507 | deathx88 | 3:40.10 | 0 | 0 |
| 1,508 | Clip_glass | 3:42.59 | 0 | 0 |
| 1,509 | DTM | 3:45.01 | 0 | 0 |
| 1,510 | Jakupi | 3:45.65 | 0 | 0 |
| 1,511 | ✂ Scissors ✂ | 3:47.05 | 0 | 0 |
| 1,512 | tet | 3:48.73 | 0 | 0 |
| 1,513 | Naikel [FR] | 3:58.35 | 0 | 0 |
| 1,514 | Ch1r0n3x | 3:58.38 | 0 | 0 |
| 1,515 | PinkSlippers_ | 4:07.41 | 0 | 0 |
| 1,516 | aro3o6 | 4:41.66 | 0 | 0 |
| 1,517 | Pregnant | 4:47.58 | 0 | 0 |
| 1,518 | sam | 5:03.52 | 0 | 0 |
| 1,519 | Krash | 5:08.91 | 0 | 0 |
| 1,520 | Mex | 5:18.79 | 0 | 0 |
| 1,521 | Onigiriii | 5:24.79 | 0 | 0 |
| 1,522 | Vector1109 | 5:26.17 | 0 | 0 |
| 1,523 | Alex | 6:04.06 | 0 | 0 |
| 1,524 | xXAnDr3ZXx | 6:37.66 | 0 | 0 |
HoldGrip